<?xml version="1.0" encoding="UTF-8" standalone="no" ?>
<gpx xmlns="http://www.topografix.com/GPX/1/1" xmlns:xsi="http://www.w3.org/2001/XMLSchema-instance" xsi:schemaLocation="http://www.topografix.com/GPX/1/1 http://www.topografix.com/GPX/1/1/gpx.xsd" version="1.1" creator="VisuGPX - https://www.visugpx.com">
  <metadata>
    <name>83 - L - Salernes</name>
    <desc><![CDATA[83 - L - Salernes : Picaillou, Cheval Debout ]]></desc>
  </metadata>
  <trk>
    <name><![CDATA[Salernes Cheval Debout (1)]]></name>
    <extensions>
      <line xmlns="http://www.topografix.com/GPX/gpx_style/0/2">
        <width>4</width>
      </line>
    </extensions>
    <trkseg>
      <trkpt lat="43.58096" lon="6.23391">
        <ele>353.2</ele>
        <time>2021-03-05T13:30:21.000Z</time>
      </trkpt>
      <trkpt lat="43.58104" lon="6.23385">
        <ele>353.1</ele>
        <time>2021-03-05T13:31:04.000Z</time>
      </trkpt>
      <trkpt lat="43.58108" lon="6.23373">
        <ele>353.2</ele>
        <time>2021-03-05T13:31:13.000Z</time>
      </trkpt>
      <trkpt lat="43.58115" lon="6.23365">
        <ele>353.1</ele>
        <time>2021-03-05T13:31:19.000Z</time>
      </trkpt>
      <trkpt lat="43.58123" lon="6.23358">
        <ele>352.8</ele>
        <time>2021-03-05T13:31:25.000Z</time>
      </trkpt>
      <trkpt lat="43.58128" lon="6.23345">
        <ele>352.4</ele>
        <time>2021-03-05T13:31:34.000Z</time>
      </trkpt>
      <trkpt lat="43.58127" lon="6.23333">
        <ele>352</ele>
        <time>2021-03-05T13:31:43.000Z</time>
      </trkpt>
      <trkpt lat="43.5813" lon="6.2332">
        <ele>345.4</ele>
        <time>2021-03-05T13:31:52.000Z</time>
      </trkpt>
      <trkpt lat="43.58135" lon="6.2331">
        <ele>353.8</ele>
        <time>2021-03-05T13:32:01.000Z</time>
      </trkpt>
      <trkpt lat="43.58142" lon="6.23302">
        <ele>352.4</ele>
        <time>2021-03-05T13:32:09.000Z</time>
      </trkpt>
      <trkpt lat="43.58151" lon="6.23295">
        <ele>351.7</ele>
        <time>2021-03-05T13:32:18.000Z</time>
      </trkpt>
      <trkpt lat="43.58158" lon="6.23286">
        <ele>350.7</ele>
        <time>2021-03-05T13:32:25.000Z</time>
      </trkpt>
      <trkpt lat="43.58167" lon="6.23282">
        <ele>350.8</ele>
        <time>2021-03-05T13:32:31.000Z</time>
      </trkpt>
      <trkpt lat="43.58175" lon="6.23274">
        <ele>350.4</ele>
        <time>2021-03-05T13:32:41.000Z</time>
      </trkpt>
      <trkpt lat="43.58182" lon="6.23265">
        <ele>350.2</ele>
        <time>2021-03-05T13:32:48.000Z</time>
      </trkpt>
      <trkpt lat="43.5819" lon="6.23255">
        <ele>350</ele>
        <time>2021-03-05T13:32:57.000Z</time>
      </trkpt>
      <trkpt lat="43.58195" lon="6.23243">
        <ele>350.4</ele>
        <time>2021-03-05T13:33:05.000Z</time>
      </trkpt>
      <trkpt lat="43.58204" lon="6.23237">
        <ele>350.4</ele>
        <time>2021-03-05T13:33:13.000Z</time>
      </trkpt>
      <trkpt lat="43.58215" lon="6.2323">
        <ele>349</ele>
        <time>2021-03-05T13:33:26.000Z</time>
      </trkpt>
      <trkpt lat="43.58224" lon="6.23225">
        <ele>351</ele>
        <time>2021-03-05T13:33:30.000Z</time>
      </trkpt>
      <trkpt lat="43.58232" lon="6.23217">
        <ele>350.7</ele>
        <time>2021-03-05T13:33:38.000Z</time>
      </trkpt>
      <trkpt lat="43.58242" lon="6.23216">
        <ele>348.9</ele>
        <time>2021-03-05T13:33:47.000Z</time>
      </trkpt>
      <trkpt lat="43.58251" lon="6.23218">
        <ele>348.2</ele>
        <time>2021-03-05T13:33:54.000Z</time>
      </trkpt>
      <trkpt lat="43.58328" lon="6.23273">
        <ele>348</ele>
        <time>2021-03-05T13:34:14.000Z</time>
      </trkpt>
      <trkpt lat="43.58307" lon="6.23251">
        <ele>348.1</ele>
        <time>2021-03-05T13:34:17.000Z</time>
      </trkpt>
      <trkpt lat="43.58316" lon="6.23249">
        <ele>348.6</ele>
        <time>2021-03-05T13:34:43.000Z</time>
      </trkpt>
      <trkpt lat="43.58325" lon="6.23251">
        <ele>348.8</ele>
        <time>2021-03-05T13:34:48.000Z</time>
      </trkpt>
      <trkpt lat="43.58335" lon="6.23253">
        <ele>348.4</ele>
        <time>2021-03-05T13:34:58.000Z</time>
      </trkpt>
      <trkpt lat="43.58345" lon="6.23258">
        <ele>348.8</ele>
        <time>2021-03-05T13:35:08.000Z</time>
      </trkpt>
      <trkpt lat="43.58354" lon="6.23263">
        <ele>350.3</ele>
        <time>2021-03-05T13:35:18.000Z</time>
      </trkpt>
      <trkpt lat="43.58361" lon="6.2327">
        <ele>350.1</ele>
        <time>2021-03-05T13:35:26.000Z</time>
      </trkpt>
      <trkpt lat="43.58369" lon="6.23278">
        <ele>349.5</ele>
        <time>2021-03-05T13:35:34.000Z</time>
      </trkpt>
      <trkpt lat="43.58377" lon="6.23285">
        <ele>349.3</ele>
        <time>2021-03-05T13:35:44.000Z</time>
      </trkpt>
      <trkpt lat="43.58384" lon="6.23296">
        <ele>349.4</ele>
        <time>2021-03-05T13:35:53.000Z</time>
      </trkpt>
      <trkpt lat="43.58391" lon="6.23305">
        <ele>350.1</ele>
        <time>2021-03-05T13:36:02.000Z</time>
      </trkpt>
      <trkpt lat="43.58398" lon="6.23316">
        <ele>350.9</ele>
        <time>2021-03-05T13:36:11.000Z</time>
      </trkpt>
      <trkpt lat="43.58405" lon="6.23324">
        <ele>351.7</ele>
        <time>2021-03-05T13:36:19.000Z</time>
      </trkpt>
      <trkpt lat="43.58405" lon="6.23325">
        <ele>352.1</ele>
        <time>2021-03-05T13:36:23.000Z</time>
      </trkpt>
      <trkpt lat="43.58415" lon="6.23329">
        <ele>369.8</ele>
        <time>2021-03-05T09:19:20.000Z</time>
      </trkpt>
      <trkpt lat="43.58415" lon="6.23329">
        <ele>369.8</ele>
        <time>2021-03-05T09:19:21.000Z</time>
      </trkpt>
      <trkpt lat="43.58406" lon="6.23332">
        <ele>369.4</ele>
        <time>2021-03-05T09:20:21.000Z</time>
      </trkpt>
      <trkpt lat="43.58412" lon="6.23323">
        <ele>367.7</ele>
        <time>2021-03-05T09:21:06.000Z</time>
      </trkpt>
      <trkpt lat="43.58417" lon="6.23333">
        <ele>372.1</ele>
        <time>2021-03-05T09:25:11.000Z</time>
      </trkpt>
      <trkpt lat="43.5841" lon="6.23325">
        <ele>375.6</ele>
        <time>2021-03-05T09:25:28.000Z</time>
      </trkpt>
      <trkpt lat="43.58399" lon="6.2333">
        <ele>371.8</ele>
        <time>2021-03-05T09:25:52.000Z</time>
      </trkpt>
      <trkpt lat="43.58408" lon="6.23325">
        <ele>369.6</ele>
        <time>2021-03-05T09:27:30.000Z</time>
      </trkpt>
      <trkpt lat="43.58417" lon="6.23322">
        <ele>370.5</ele>
        <time>2021-03-05T09:27:55.000Z</time>
      </trkpt>
      <trkpt lat="43.5842" lon="6.23334">
        <ele>371.9</ele>
        <time>2021-03-05T13:30:21.000Z</time>
      </trkpt>
      <trkpt lat="43.58425" lon="6.23346">
        <ele>370.5</ele>
        <time>2021-03-05T13:30:48.000Z</time>
      </trkpt>
      <trkpt lat="43.58435" lon="6.23351">
        <ele>370.2</ele>
        <time>2021-03-05T13:30:54.000Z</time>
      </trkpt>
      <trkpt lat="43.58443" lon="6.23345">
        <ele>370.8</ele>
        <time>2021-03-05T13:31:06.000Z</time>
      </trkpt>
      <trkpt lat="43.5845" lon="6.23336">
        <ele>372</ele>
        <time>2021-03-05T13:31:29.000Z</time>
      </trkpt>
      <trkpt lat="43.58453" lon="6.23323">
        <ele>371.9</ele>
        <time>2021-03-05T13:31:45.000Z</time>
      </trkpt>
      <trkpt lat="43.58459" lon="6.23312">
        <ele>371.9</ele>
        <time>2021-03-05T13:32:02.000Z</time>
      </trkpt>
      <trkpt lat="43.58467" lon="6.23302">
        <ele>371.8</ele>
        <time>2021-03-05T13:32:17.000Z</time>
      </trkpt>
      <trkpt lat="43.58473" lon="6.23293">
        <ele>371.7</ele>
        <time>2021-03-05T13:32:26.000Z</time>
      </trkpt>
      <trkpt lat="43.5848" lon="6.23284">
        <ele>371.9</ele>
        <time>2021-03-05T13:32:38.000Z</time>
      </trkpt>
      <trkpt lat="43.5849" lon="6.23285">
        <ele>372.2</ele>
        <time>2021-03-05T13:32:56.000Z</time>
      </trkpt>
      <trkpt lat="43.58498" lon="6.23277">
        <ele>371.8</ele>
        <time>2021-03-05T13:33:11.000Z</time>
      </trkpt>
      <trkpt lat="43.58505" lon="6.23267">
        <ele>371.8</ele>
        <time>2021-03-05T13:33:19.000Z</time>
      </trkpt>
      <trkpt lat="43.58511" lon="6.23258">
        <ele>372</ele>
        <time>2021-03-05T13:33:31.000Z</time>
      </trkpt>
      <trkpt lat="43.58522" lon="6.23252">
        <ele>372</ele>
        <time>2021-03-05T13:33:43.000Z</time>
      </trkpt>
      <trkpt lat="43.58524" lon="6.2324">
        <ele>372.8</ele>
        <time>2021-03-05T13:34:07.000Z</time>
      </trkpt>
      <trkpt lat="43.58522" lon="6.23227">
        <ele>373</ele>
        <time>2021-03-05T13:34:17.000Z</time>
      </trkpt>
      <trkpt lat="43.58523" lon="6.23214">
        <ele>373</ele>
        <time>2021-03-05T13:34:26.000Z</time>
      </trkpt>
      <trkpt lat="43.58514" lon="6.23212">
        <ele>373</ele>
        <time>2021-03-05T13:34:47.000Z</time>
      </trkpt>
      <trkpt lat="43.58507" lon="6.23204">
        <ele>373.3</ele>
        <time>2021-03-05T13:35:02.000Z</time>
      </trkpt>
      <trkpt lat="43.58507" lon="6.23188">
        <ele>371.9</ele>
        <time>2021-03-05T13:35:20.000Z</time>
      </trkpt>
      <trkpt lat="43.58513" lon="6.23178">
        <ele>373.4</ele>
        <time>2021-03-05T13:35:46.000Z</time>
      </trkpt>
      <trkpt lat="43.58522" lon="6.23173">
        <ele>372.2</ele>
        <time>2021-03-05T13:35:54.000Z</time>
      </trkpt>
      <trkpt lat="43.5853" lon="6.23169">
        <ele>373.7</ele>
        <time>2021-03-05T13:36:14.000Z</time>
      </trkpt>
      <trkpt lat="43.58537" lon="6.23161">
        <ele>375.3</ele>
        <time>2021-03-05T13:36:32.000Z</time>
      </trkpt>
      <trkpt lat="43.58542" lon="6.23149">
        <ele>377.2</ele>
        <time>2021-03-05T13:36:52.000Z</time>
      </trkpt>
      <trkpt lat="43.58544" lon="6.23137">
        <ele>377.1</ele>
        <time>2021-03-05T13:37:13.000Z</time>
      </trkpt>
      <trkpt lat="43.58539" lon="6.23126">
        <ele>378.7</ele>
        <time>2021-03-05T13:37:31.000Z</time>
      </trkpt>
      <trkpt lat="43.58541" lon="6.23114">
        <ele>380</ele>
        <time>2021-03-05T13:37:51.000Z</time>
      </trkpt>
      <trkpt lat="43.58545" lon="6.23103">
        <ele>383.2</ele>
        <time>2021-03-05T13:38:32.000Z</time>
      </trkpt>
      <trkpt lat="43.5854" lon="6.23092">
        <ele>384.6</ele>
        <time>2021-03-05T13:38:52.000Z</time>
      </trkpt>
      <trkpt lat="43.58536" lon="6.2308">
        <ele>385.6</ele>
        <time>2021-03-05T13:39:08.000Z</time>
      </trkpt>
      <trkpt lat="43.58542" lon="6.23069">
        <ele>386.6</ele>
        <time>2021-03-05T13:39:30.000Z</time>
      </trkpt>
      <trkpt lat="43.58534" lon="6.23059">
        <ele>387.7</ele>
        <time>2021-03-05T13:40:16.000Z</time>
      </trkpt>
      <trkpt lat="43.58541" lon="6.23049">
        <ele>388.4</ele>
        <time>2021-03-05T13:40:30.000Z</time>
      </trkpt>
      <trkpt lat="43.58547" lon="6.23038">
        <ele>389</ele>
        <time>2021-03-05T13:40:43.000Z</time>
      </trkpt>
      <trkpt lat="43.58553" lon="6.23028">
        <ele>393.8</ele>
        <time>2021-03-05T13:41:21.000Z</time>
      </trkpt>
      <trkpt lat="43.58553" lon="6.23019">
        <ele>396.8</ele>
        <time>2021-03-05T13:42:45.000Z</time>
      </trkpt>
      <trkpt lat="43.58554" lon="6.23017">
        <ele>396.4</ele>
        <time>2021-03-05T13:43:38.000Z</time>
      </trkpt>
      <trkpt lat="43.58563" lon="6.23013">
        <ele>396.1</ele>
        <time>2021-03-05T13:44:04.000Z</time>
      </trkpt>
      <trkpt lat="43.58569" lon="6.23003">
        <ele>398</ele>
        <time>2021-03-05T13:44:26.000Z</time>
      </trkpt>
      <trkpt lat="43.58574" lon="6.22993">
        <ele>399.4</ele>
        <time>2021-03-05T13:44:44.000Z</time>
      </trkpt>
      <trkpt lat="43.58579" lon="6.22982">
        <ele>400.6</ele>
        <time>2021-03-05T13:44:58.000Z</time>
      </trkpt>
      <trkpt lat="43.58588" lon="6.22978">
        <ele>400.6</ele>
        <time>2021-03-05T13:45:12.000Z</time>
      </trkpt>
      <trkpt lat="43.58596" lon="6.22973">
        <ele>401.3</ele>
        <time>2021-03-05T13:45:28.000Z</time>
      </trkpt>
      <trkpt lat="43.58605" lon="6.22969">
        <ele>402</ele>
        <time>2021-03-05T13:45:38.000Z</time>
      </trkpt>
      <trkpt lat="43.58617" lon="6.22963">
        <ele>402.3</ele>
        <time>2021-03-05T13:46:04.000Z</time>
      </trkpt>
      <trkpt lat="43.58626" lon="6.2296">
        <ele>401.6</ele>
        <time>2021-03-05T13:46:20.000Z</time>
      </trkpt>
      <trkpt lat="43.58635" lon="6.22965">
        <ele>402.9</ele>
        <time>2021-03-05T13:46:46.000Z</time>
      </trkpt>
      <trkpt lat="43.58644" lon="6.22965">
        <ele>404.2</ele>
        <time>2021-03-05T13:47:06.000Z</time>
      </trkpt>
      <trkpt lat="43.58649" lon="6.22954">
        <ele>404.6</ele>
        <time>2021-03-05T13:47:25.000Z</time>
      </trkpt>
      <trkpt lat="43.58648" lon="6.22966">
        <ele>405</ele>
        <time>2021-03-05T13:47:45.000Z</time>
      </trkpt>
      <trkpt lat="43.58657" lon="6.22968">
        <ele>404.6</ele>
        <time>2021-03-05T13:48:01.000Z</time>
      </trkpt>
      <trkpt lat="43.58665" lon="6.2296">
        <ele>405.8</ele>
        <time>2021-03-05T13:50:45.000Z</time>
      </trkpt>
      <trkpt lat="43.58674" lon="6.22961">
        <ele>406.3</ele>
        <time>2021-03-05T13:51:03.000Z</time>
      </trkpt>
      <trkpt lat="43.58683" lon="6.22964">
        <ele>407.4</ele>
        <time>2021-03-05T13:51:20.000Z</time>
      </trkpt>
      <trkpt lat="43.58691" lon="6.2297">
        <ele>408.5</ele>
        <time>2021-03-05T13:51:41.000Z</time>
      </trkpt>
      <trkpt lat="43.587" lon="6.22973">
        <ele>410.2</ele>
        <time>2021-03-05T13:51:59.000Z</time>
      </trkpt>
      <trkpt lat="43.58709" lon="6.2297">
        <ele>411.6</ele>
        <time>2021-03-05T13:52:13.000Z</time>
      </trkpt>
      <trkpt lat="43.58718" lon="6.22966">
        <ele>412</ele>
        <time>2021-03-05T13:52:22.000Z</time>
      </trkpt>
      <trkpt lat="43.58725" lon="6.22956">
        <ele>413.3</ele>
        <time>2021-03-05T13:52:37.000Z</time>
      </trkpt>
      <trkpt lat="43.58729" lon="6.22944">
        <ele>414</ele>
        <time>2021-03-05T13:52:48.000Z</time>
      </trkpt>
      <trkpt lat="43.58737" lon="6.22936">
        <ele>414.8</ele>
        <time>2021-03-05T13:53:01.000Z</time>
      </trkpt>
      <trkpt lat="43.58744" lon="6.22928">
        <ele>415</ele>
        <time>2021-03-05T13:53:12.000Z</time>
      </trkpt>
      <trkpt lat="43.58751" lon="6.22919">
        <ele>415.4</ele>
        <time>2021-03-05T13:53:28.000Z</time>
      </trkpt>
      <trkpt lat="43.58758" lon="6.2291">
        <ele>416.3</ele>
        <time>2021-03-05T13:53:44.000Z</time>
      </trkpt>
      <trkpt lat="43.58766" lon="6.22904">
        <ele>416.6</ele>
        <time>2021-03-05T13:53:57.000Z</time>
      </trkpt>
      <trkpt lat="43.58775" lon="6.22906">
        <ele>417.4</ele>
        <time>2021-03-05T13:54:10.000Z</time>
      </trkpt>
      <trkpt lat="43.58775" lon="6.22893">
        <ele>418.1</ele>
        <time>2021-03-05T13:54:57.000Z</time>
      </trkpt>
      <trkpt lat="43.58783" lon="6.22887">
        <ele>418.9</ele>
        <time>2021-03-05T13:55:30.000Z</time>
      </trkpt>
      <trkpt lat="43.58791" lon="6.2288">
        <ele>419.4</ele>
        <time>2021-03-05T13:55:46.000Z</time>
      </trkpt>
      <trkpt lat="43.58796" lon="6.2287">
        <ele>420.9</ele>
        <time>2021-03-05T13:56:08.000Z</time>
      </trkpt>
      <trkpt lat="43.58798" lon="6.22857">
        <ele>422.8</ele>
        <time>2021-03-05T13:56:27.000Z</time>
      </trkpt>
      <trkpt lat="43.58806" lon="6.22854">
        <ele>423.4</ele>
        <time>2021-03-05T13:56:39.000Z</time>
      </trkpt>
      <trkpt lat="43.58808" lon="6.22841">
        <ele>423.8</ele>
        <time>2021-03-05T13:57:01.000Z</time>
      </trkpt>
      <trkpt lat="43.58806" lon="6.22828">
        <ele>423.7</ele>
        <time>2021-03-05T13:57:11.000Z</time>
      </trkpt>
      <trkpt lat="43.58804" lon="6.22814">
        <ele>425</ele>
        <time>2021-03-05T13:57:20.000Z</time>
      </trkpt>
      <trkpt lat="43.588" lon="6.22802">
        <ele>425.8</ele>
        <time>2021-03-05T13:57:30.000Z</time>
      </trkpt>
      <trkpt lat="43.58799" lon="6.22789">
        <ele>426.1</ele>
        <time>2021-03-05T13:57:40.000Z</time>
      </trkpt>
      <trkpt lat="43.58804" lon="6.22778">
        <ele>426.3</ele>
        <time>2021-03-05T13:57:51.000Z</time>
      </trkpt>
      <trkpt lat="43.58803" lon="6.22764">
        <ele>427</ele>
        <time>2021-03-05T13:58:02.000Z</time>
      </trkpt>
      <trkpt lat="43.58807" lon="6.22751">
        <ele>427.3</ele>
        <time>2021-03-05T13:58:14.000Z</time>
      </trkpt>
      <trkpt lat="43.58813" lon="6.22741">
        <ele>427.7</ele>
        <time>2021-03-05T13:58:29.000Z</time>
      </trkpt>
      <trkpt lat="43.58817" lon="6.22729">
        <ele>428.5</ele>
        <time>2021-03-05T13:58:41.000Z</time>
      </trkpt>
      <trkpt lat="43.58825" lon="6.22723">
        <ele>428.7</ele>
        <time>2021-03-05T13:58:53.000Z</time>
      </trkpt>
      <trkpt lat="43.58834" lon="6.22719">
        <ele>428.6</ele>
        <time>2021-03-05T13:59:09.000Z</time>
      </trkpt>
      <trkpt lat="43.5884" lon="6.22729">
        <ele>431.7</ele>
        <time>2021-03-05T13:59:52.000Z</time>
      </trkpt>
      <trkpt lat="43.58835" lon="6.22739">
        <ele>433.9</ele>
        <time>2021-03-05T14:00:13.000Z</time>
      </trkpt>
      <trkpt lat="43.58832" lon="6.22752">
        <ele>434.7</ele>
        <time>2021-03-05T14:00:35.000Z</time>
      </trkpt>
      <trkpt lat="43.58833" lon="6.22765">
        <ele>437.3</ele>
        <time>2021-03-05T14:00:53.000Z</time>
      </trkpt>
      <trkpt lat="43.58836" lon="6.22778">
        <ele>439</ele>
        <time>2021-03-05T14:01:47.000Z</time>
      </trkpt>
      <trkpt lat="43.58835" lon="6.22791">
        <ele>440.8</ele>
        <time>2021-03-05T14:01:58.000Z</time>
      </trkpt>
      <trkpt lat="43.5884" lon="6.22802">
        <ele>444.1</ele>
        <time>2021-03-05T14:02:19.000Z</time>
      </trkpt>
      <trkpt lat="43.58849" lon="6.22803">
        <ele>448.4</ele>
        <time>2021-03-05T14:03:05.000Z</time>
      </trkpt>
      <trkpt lat="43.58855" lon="6.22813">
        <ele>450.5</ele>
        <time>2021-03-05T14:04:01.000Z</time>
      </trkpt>
      <trkpt lat="43.58862" lon="6.22821">
        <ele>453.1</ele>
        <time>2021-03-05T14:04:21.000Z</time>
      </trkpt>
      <trkpt lat="43.58865" lon="6.22833">
        <ele>457.1</ele>
        <time>2021-03-05T14:04:56.000Z</time>
      </trkpt>
      <trkpt lat="43.5887" lon="6.22843">
        <ele>458.8</ele>
        <time>2021-03-05T14:05:14.000Z</time>
      </trkpt>
      <trkpt lat="43.58878" lon="6.22851">
        <ele>460.4</ele>
        <time>2021-03-05T14:05:31.000Z</time>
      </trkpt>
      <trkpt lat="43.58883" lon="6.22861">
        <ele>462.7</ele>
        <time>2021-03-05T14:05:57.000Z</time>
      </trkpt>
      <trkpt lat="43.58889" lon="6.2287">
        <ele>464.6</ele>
        <time>2021-03-05T14:06:18.000Z</time>
      </trkpt>
      <trkpt lat="43.58891" lon="6.22883">
        <ele>467</ele>
        <time>2021-03-05T14:06:37.000Z</time>
      </trkpt>
      <trkpt lat="43.58885" lon="6.22893">
        <ele>468.4</ele>
        <time>2021-03-05T14:07:01.000Z</time>
      </trkpt>
      <trkpt lat="43.58883" lon="6.22906">
        <ele>467.9</ele>
        <time>2021-03-05T14:07:16.000Z</time>
      </trkpt>
      <trkpt lat="43.58884" lon="6.22919">
        <ele>468.7</ele>
        <time>2021-03-05T14:07:33.000Z</time>
      </trkpt>
      <trkpt lat="43.58891" lon="6.22928">
        <ele>472.1</ele>
        <time>2021-03-05T14:08:12.000Z</time>
      </trkpt>
      <trkpt lat="43.58894" lon="6.2294">
        <ele>473.5</ele>
        <time>2021-03-05T14:08:22.000Z</time>
      </trkpt>
      <trkpt lat="43.58895" lon="6.22953">
        <ele>474.4</ele>
        <time>2021-03-05T14:08:34.000Z</time>
      </trkpt>
      <trkpt lat="43.58898" lon="6.22965">
        <ele>475.6</ele>
        <time>2021-03-05T14:08:47.000Z</time>
      </trkpt>
      <trkpt lat="43.58897" lon="6.22978">
        <ele>476.9</ele>
        <time>2021-03-05T14:08:58.000Z</time>
      </trkpt>
      <trkpt lat="43.58903" lon="6.22988">
        <ele>477.8</ele>
        <time>2021-03-05T14:09:19.000Z</time>
      </trkpt>
      <trkpt lat="43.58897" lon="6.22998">
        <ele>478.5</ele>
        <time>2021-03-05T14:12:46.000Z</time>
      </trkpt>
      <trkpt lat="43.58897" lon="6.2301">
        <ele>477.3</ele>
        <time>2021-03-05T14:14:35.000Z</time>
      </trkpt>
      <trkpt lat="43.58889" lon="6.23017">
        <ele>476.3</ele>
        <time>2021-03-05T14:14:51.000Z</time>
      </trkpt>
      <trkpt lat="43.58879" lon="6.23017">
        <ele>476.1</ele>
        <time>2021-03-05T14:15:04.000Z</time>
      </trkpt>
      <trkpt lat="43.58871" lon="6.23013">
        <ele>475.5</ele>
        <time>2021-03-05T14:15:18.000Z</time>
      </trkpt>
      <trkpt lat="43.58861" lon="6.23016">
        <ele>473.6</ele>
        <time>2021-03-05T14:15:36.000Z</time>
      </trkpt>
      <trkpt lat="43.58854" lon="6.23026">
        <ele>472.2</ele>
        <time>2021-03-05T14:15:52.000Z</time>
      </trkpt>
      <trkpt lat="43.58847" lon="6.23035">
        <ele>470.3</ele>
        <time>2021-03-05T14:16:42.000Z</time>
      </trkpt>
      <trkpt lat="43.58839" lon="6.23042">
        <ele>470.7</ele>
        <time>2021-03-05T14:17:17.000Z</time>
      </trkpt>
      <trkpt lat="43.5883" lon="6.23046">
        <ele>467.6</ele>
        <time>2021-03-05T14:18:19.000Z</time>
      </trkpt>
      <trkpt lat="43.58821" lon="6.23046">
        <ele>465.4</ele>
        <time>2021-03-05T14:18:43.000Z</time>
      </trkpt>
      <trkpt lat="43.58813" lon="6.2304">
        <ele>463</ele>
        <time>2021-03-05T14:19:21.000Z</time>
      </trkpt>
      <trkpt lat="43.58804" lon="6.23043">
        <ele>460.6</ele>
        <time>2021-03-05T14:19:50.000Z</time>
      </trkpt>
      <trkpt lat="43.58795" lon="6.23047">
        <ele>459.8</ele>
        <time>2021-03-05T14:20:01.000Z</time>
      </trkpt>
      <trkpt lat="43.58787" lon="6.23053">
        <ele>459.2</ele>
        <time>2021-03-05T14:20:14.000Z</time>
      </trkpt>
      <trkpt lat="43.58778" lon="6.23059">
        <ele>458.8</ele>
        <time>2021-03-05T14:20:26.000Z</time>
      </trkpt>
      <trkpt lat="43.58769" lon="6.23064">
        <ele>458.1</ele>
        <time>2021-03-05T14:20:38.000Z</time>
      </trkpt>
      <trkpt lat="43.58761" lon="6.23069">
        <ele>458</ele>
        <time>2021-03-05T14:20:52.000Z</time>
      </trkpt>
      <trkpt lat="43.58755" lon="6.23078">
        <ele>458.1</ele>
        <time>2021-03-05T14:21:05.000Z</time>
      </trkpt>
      <trkpt lat="43.58746" lon="6.23084">
        <ele>457.5</ele>
        <time>2021-03-05T14:21:19.000Z</time>
      </trkpt>
      <trkpt lat="43.58739" lon="6.23092">
        <ele>457.7</ele>
        <time>2021-03-05T14:21:32.000Z</time>
      </trkpt>
      <trkpt lat="43.58731" lon="6.23098">
        <ele>457.7</ele>
        <time>2021-03-05T14:21:50.000Z</time>
      </trkpt>
      <trkpt lat="43.58722" lon="6.23101">
        <ele>458.1</ele>
        <time>2021-03-05T14:22:03.000Z</time>
      </trkpt>
      <trkpt lat="43.58712" lon="6.231">
        <ele>458.7</ele>
        <time>2021-03-05T14:22:13.000Z</time>
      </trkpt>
      <trkpt lat="43.58706" lon="6.23091">
        <ele>458.2</ele>
        <time>2021-03-05T14:22:25.000Z</time>
      </trkpt>
      <trkpt lat="43.58698" lon="6.23084">
        <ele>458.3</ele>
        <time>2021-03-05T14:23:36.000Z</time>
      </trkpt>
      <trkpt lat="43.5869" lon="6.23078">
        <ele>456.9</ele>
        <time>2021-03-05T14:24:01.000Z</time>
      </trkpt>
      <trkpt lat="43.58681" lon="6.23079">
        <ele>456.9</ele>
        <time>2021-03-05T14:24:29.000Z</time>
      </trkpt>
      <trkpt lat="43.58678" lon="6.2309">
        <ele>459.2</ele>
        <time>2021-03-05T14:25:01.000Z</time>
      </trkpt>
      <trkpt lat="43.58671" lon="6.23082">
        <ele>458.4</ele>
        <time>2021-03-05T14:26:36.000Z</time>
      </trkpt>
      <trkpt lat="43.58662" lon="6.23087">
        <ele>458.2</ele>
        <time>2021-03-05T14:26:50.000Z</time>
      </trkpt>
      <trkpt lat="43.58653" lon="6.23088">
        <ele>457.5</ele>
        <time>2021-03-05T14:27:01.000Z</time>
      </trkpt>
      <trkpt lat="43.58644" lon="6.23091">
        <ele>456.5</ele>
        <time>2021-03-05T14:27:24.000Z</time>
      </trkpt>
      <trkpt lat="43.58636" lon="6.23085">
        <ele>454.4</ele>
        <time>2021-03-05T14:27:59.000Z</time>
      </trkpt>
      <trkpt lat="43.58645" lon="6.23088">
        <ele>457.5</ele>
        <time>2021-03-05T14:29:00.000Z</time>
      </trkpt>
      <trkpt lat="43.58655" lon="6.23087">
        <ele>457.6</ele>
        <time>2021-03-05T14:29:10.000Z</time>
      </trkpt>
      <trkpt lat="43.58664" lon="6.23086">
        <ele>456</ele>
        <time>2021-03-05T14:29:22.000Z</time>
      </trkpt>
      <trkpt lat="43.58673" lon="6.23083">
        <ele>457.2</ele>
        <time>2021-03-05T14:29:32.000Z</time>
      </trkpt>
      <trkpt lat="43.58682" lon="6.23079">
        <ele>457.3</ele>
        <time>2021-03-05T14:29:49.000Z</time>
      </trkpt>
      <trkpt lat="43.58691" lon="6.23082">
        <ele>456.7</ele>
        <time>2021-03-05T14:30:04.000Z</time>
      </trkpt>
      <trkpt lat="43.587" lon="6.23085">
        <ele>458.4</ele>
        <time>2021-03-05T14:30:27.000Z</time>
      </trkpt>
      <trkpt lat="43.58707" lon="6.23093">
        <ele>459.3</ele>
        <time>2021-03-05T14:30:48.000Z</time>
      </trkpt>
      <trkpt lat="43.58713" lon="6.23102">
        <ele>459.3</ele>
        <time>2021-03-05T14:32:01.000Z</time>
      </trkpt>
      <trkpt lat="43.58722" lon="6.23103">
        <ele>459.2</ele>
        <time>2021-03-05T14:32:15.000Z</time>
      </trkpt>
      <trkpt lat="43.5873" lon="6.23096">
        <ele>459.1</ele>
        <time>2021-03-05T14:32:32.000Z</time>
      </trkpt>
      <trkpt lat="43.58738" lon="6.2309">
        <ele>458.9</ele>
        <time>2021-03-05T14:32:41.000Z</time>
      </trkpt>
      <trkpt lat="43.58746" lon="6.23084">
        <ele>458.7</ele>
        <time>2021-03-05T14:32:52.000Z</time>
      </trkpt>
      <trkpt lat="43.58754" lon="6.23076">
        <ele>458.7</ele>
        <time>2021-03-05T14:33:04.000Z</time>
      </trkpt>
      <trkpt lat="43.58762" lon="6.23069">
        <ele>459.1</ele>
        <time>2021-03-05T14:33:17.000Z</time>
      </trkpt>
      <trkpt lat="43.58771" lon="6.23062">
        <ele>459.1</ele>
        <time>2021-03-05T14:33:28.000Z</time>
      </trkpt>
      <trkpt lat="43.58781" lon="6.23057">
        <ele>459.3</ele>
        <time>2021-03-05T14:33:42.000Z</time>
      </trkpt>
      <trkpt lat="43.5879" lon="6.23052">
        <ele>459.9</ele>
        <time>2021-03-05T14:33:51.000Z</time>
      </trkpt>
      <trkpt lat="43.58798" lon="6.23045">
        <ele>460.1</ele>
        <time>2021-03-05T14:34:01.000Z</time>
      </trkpt>
      <trkpt lat="43.58806" lon="6.23041">
        <ele>461.4</ele>
        <time>2021-03-05T14:34:16.000Z</time>
      </trkpt>
      <trkpt lat="43.58816" lon="6.23041">
        <ele>462.3</ele>
        <time>2021-03-05T14:34:33.000Z</time>
      </trkpt>
      <trkpt lat="43.58824" lon="6.23045">
        <ele>465.5</ele>
        <time>2021-03-05T14:34:57.000Z</time>
      </trkpt>
      <trkpt lat="43.58833" lon="6.2304">
        <ele>467.4</ele>
        <time>2021-03-05T14:35:18.000Z</time>
      </trkpt>
      <trkpt lat="43.58842" lon="6.2304">
        <ele>468.1</ele>
        <time>2021-03-05T14:35:51.000Z</time>
      </trkpt>
      <trkpt lat="43.5885" lon="6.23045">
        <ele>472.8</ele>
        <time>2021-03-05T14:41:26.000Z</time>
      </trkpt>
      <trkpt lat="43.58854" lon="6.23056">
        <ele>472.9</ele>
        <time>2021-03-05T14:41:44.000Z</time>
      </trkpt>
      <trkpt lat="43.58862" lon="6.23062">
        <ele>472.2</ele>
        <time>2021-03-05T14:42:05.000Z</time>
      </trkpt>
      <trkpt lat="43.58872" lon="6.23063">
        <ele>471.9</ele>
        <time>2021-03-05T14:42:20.000Z</time>
      </trkpt>
      <trkpt lat="43.58881" lon="6.23064">
        <ele>472.5</ele>
        <time>2021-03-05T14:42:37.000Z</time>
      </trkpt>
      <trkpt lat="43.58887" lon="6.23074">
        <ele>472.1</ele>
        <time>2021-03-05T14:42:53.000Z</time>
      </trkpt>
      <trkpt lat="43.58892" lon="6.23084">
        <ele>470.4</ele>
        <time>2021-03-05T14:43:07.000Z</time>
      </trkpt>
      <trkpt lat="43.58898" lon="6.23094">
        <ele>468.5</ele>
        <time>2021-03-05T14:43:30.000Z</time>
      </trkpt>
      <trkpt lat="43.58904" lon="6.23104">
        <ele>467.2</ele>
        <time>2021-03-05T14:43:42.000Z</time>
      </trkpt>
      <trkpt lat="43.58908" lon="6.23115">
        <ele>465.4</ele>
        <time>2021-03-05T14:44:01.000Z</time>
      </trkpt>
      <trkpt lat="43.58911" lon="6.23127">
        <ele>465.1</ele>
        <time>2021-03-05T14:44:13.000Z</time>
      </trkpt>
      <trkpt lat="43.58915" lon="6.23138">
        <ele>464.3</ele>
        <time>2021-03-05T14:44:39.000Z</time>
      </trkpt>
      <trkpt lat="43.58919" lon="6.2315">
        <ele>464.2</ele>
        <time>2021-03-05T14:44:54.000Z</time>
      </trkpt>
      <trkpt lat="43.58926" lon="6.2316">
        <ele>463.5</ele>
        <time>2021-03-05T14:45:11.000Z</time>
      </trkpt>
      <trkpt lat="43.58928" lon="6.23173">
        <ele>463.1</ele>
        <time>2021-03-05T14:45:24.000Z</time>
      </trkpt>
      <trkpt lat="43.58936" lon="6.23181">
        <ele>462.8</ele>
        <time>2021-03-05T14:45:36.000Z</time>
      </trkpt>
      <trkpt lat="43.58941" lon="6.23191">
        <ele>462.7</ele>
        <time>2021-03-05T14:45:48.000Z</time>
      </trkpt>
      <trkpt lat="43.5894" lon="6.23204">
        <ele>462</ele>
        <time>2021-03-05T14:46:00.000Z</time>
      </trkpt>
      <trkpt lat="43.58941" lon="6.23216">
        <ele>458.4</ele>
        <time>2021-03-05T14:46:25.000Z</time>
      </trkpt>
      <trkpt lat="43.5894" lon="6.23229">
        <ele>456.2</ele>
        <time>2021-03-05T14:48:26.000Z</time>
      </trkpt>
      <trkpt lat="43.58947" lon="6.23238">
        <ele>456.6</ele>
        <time>2021-03-05T14:48:38.000Z</time>
      </trkpt>
      <trkpt lat="43.58952" lon="6.23249">
        <ele>456.5</ele>
        <time>2021-03-05T14:48:48.000Z</time>
      </trkpt>
      <trkpt lat="43.5896" lon="6.23257">
        <ele>456.5</ele>
        <time>2021-03-05T14:48:58.000Z</time>
      </trkpt>
      <trkpt lat="43.58961" lon="6.2327">
        <ele>454.2</ele>
        <time>2021-03-05T14:49:31.000Z</time>
      </trkpt>
      <trkpt lat="43.58966" lon="6.23281">
        <ele>452</ele>
        <time>2021-03-05T14:51:44.000Z</time>
      </trkpt>
      <trkpt lat="43.58975" lon="6.23286">
        <ele>450.9</ele>
        <time>2021-03-05T14:51:57.000Z</time>
      </trkpt>
      <trkpt lat="43.58985" lon="6.23286">
        <ele>451.4</ele>
        <time>2021-03-05T14:52:07.000Z</time>
      </trkpt>
      <trkpt lat="43.58994" lon="6.23287">
        <ele>451.8</ele>
        <time>2021-03-05T14:52:17.000Z</time>
      </trkpt>
      <trkpt lat="43.59003" lon="6.23292">
        <ele>451.7</ele>
        <time>2021-03-05T14:52:28.000Z</time>
      </trkpt>
      <trkpt lat="43.59012" lon="6.23291">
        <ele>451.8</ele>
        <time>2021-03-05T14:52:39.000Z</time>
      </trkpt>
      <trkpt lat="43.59021" lon="6.23287">
        <ele>452.4</ele>
        <time>2021-03-05T14:52:50.000Z</time>
      </trkpt>
      <trkpt lat="43.5903" lon="6.23284">
        <ele>452.5</ele>
        <time>2021-03-05T14:53:02.000Z</time>
      </trkpt>
      <trkpt lat="43.59039" lon="6.23279">
        <ele>452.7</ele>
        <time>2021-03-05T14:53:13.000Z</time>
      </trkpt>
      <trkpt lat="43.59048" lon="6.23275">
        <ele>452.9</ele>
        <time>2021-03-05T14:53:21.000Z</time>
      </trkpt>
      <trkpt lat="43.59056" lon="6.2327">
        <ele>452.9</ele>
        <time>2021-03-05T14:53:35.000Z</time>
      </trkpt>
      <trkpt lat="43.59066" lon="6.23266">
        <ele>453.2</ele>
        <time>2021-03-05T14:53:46.000Z</time>
      </trkpt>
      <trkpt lat="43.59074" lon="6.2326">
        <ele>453.2</ele>
        <time>2021-03-05T14:54:00.000Z</time>
      </trkpt>
      <trkpt lat="43.59083" lon="6.23258">
        <ele>453.8</ele>
        <time>2021-03-05T14:54:09.000Z</time>
      </trkpt>
      <trkpt lat="43.59092" lon="6.23257">
        <ele>454.3</ele>
        <time>2021-03-05T14:54:17.000Z</time>
      </trkpt>
      <trkpt lat="43.59102" lon="6.23256">
        <ele>455.2</ele>
        <time>2021-03-05T14:54:30.000Z</time>
      </trkpt>
      <trkpt lat="43.59111" lon="6.23252">
        <ele>455.7</ele>
        <time>2021-03-05T14:54:45.000Z</time>
      </trkpt>
      <trkpt lat="43.59117" lon="6.23243">
        <ele>455.9</ele>
        <time>2021-03-05T14:54:56.000Z</time>
      </trkpt>
      <trkpt lat="43.59124" lon="6.23235">
        <ele>456.4</ele>
        <time>2021-03-05T14:55:05.000Z</time>
      </trkpt>
      <trkpt lat="43.59131" lon="6.23225">
        <ele>457.3</ele>
        <time>2021-03-05T14:55:18.000Z</time>
      </trkpt>
      <trkpt lat="43.59136" lon="6.23215">
        <ele>458</ele>
        <time>2021-03-05T14:55:27.000Z</time>
      </trkpt>
      <trkpt lat="43.59143" lon="6.23207">
        <ele>458.5</ele>
        <time>2021-03-05T14:55:40.000Z</time>
      </trkpt>
      <trkpt lat="43.59152" lon="6.23202">
        <ele>458.8</ele>
        <time>2021-03-05T14:55:51.000Z</time>
      </trkpt>
      <trkpt lat="43.59161" lon="6.23197">
        <ele>459.1</ele>
        <time>2021-03-05T14:56:02.000Z</time>
      </trkpt>
      <trkpt lat="43.5917" lon="6.23193">
        <ele>458.3</ele>
        <time>2021-03-05T14:56:19.000Z</time>
      </trkpt>
      <trkpt lat="43.59179" lon="6.2319">
        <ele>458.1</ele>
        <time>2021-03-05T14:56:31.000Z</time>
      </trkpt>
      <trkpt lat="43.59188" lon="6.23193">
        <ele>457.3</ele>
        <time>2021-03-05T14:56:46.000Z</time>
      </trkpt>
      <trkpt lat="43.59198" lon="6.23196">
        <ele>457.5</ele>
        <time>2021-03-05T14:56:54.000Z</time>
      </trkpt>
      <trkpt lat="43.59207" lon="6.23199">
        <ele>457.7</ele>
        <time>2021-03-05T14:57:05.000Z</time>
      </trkpt>
      <trkpt lat="43.59216" lon="6.23203">
        <ele>457.3</ele>
        <time>2021-03-05T14:57:35.000Z</time>
      </trkpt>
      <trkpt lat="43.59225" lon="6.23199">
        <ele>456.6</ele>
        <time>2021-03-05T14:57:48.000Z</time>
      </trkpt>
      <trkpt lat="43.59234" lon="6.232">
        <ele>456.1</ele>
        <time>2021-03-05T14:58:03.000Z</time>
      </trkpt>
      <trkpt lat="43.59237" lon="6.23212">
        <ele>454.6</ele>
        <time>2021-03-05T14:59:35.000Z</time>
      </trkpt>
      <trkpt lat="43.59236" lon="6.23224">
        <ele>454.9</ele>
        <time>2021-03-05T14:59:49.000Z</time>
      </trkpt>
      <trkpt lat="43.59235" lon="6.23237">
        <ele>454.9</ele>
        <time>2021-03-05T15:00:02.000Z</time>
      </trkpt>
      <trkpt lat="43.59234" lon="6.2325">
        <ele>451.6</ele>
        <time>2021-03-05T15:03:29.000Z</time>
      </trkpt>
      <trkpt lat="43.5923" lon="6.23263">
        <ele>451.5</ele>
        <time>2021-03-05T15:03:41.000Z</time>
      </trkpt>
      <trkpt lat="43.59228" lon="6.23275">
        <ele>451.7</ele>
        <time>2021-03-05T15:03:53.000Z</time>
      </trkpt>
      <trkpt lat="43.59231" lon="6.23287">
        <ele>451.4</ele>
        <time>2021-03-05T15:04:05.000Z</time>
      </trkpt>
      <trkpt lat="43.59237" lon="6.23298">
        <ele>451.7</ele>
        <time>2021-03-05T15:04:17.000Z</time>
      </trkpt>
      <trkpt lat="43.59244" lon="6.23306">
        <ele>452.2</ele>
        <time>2021-03-05T15:04:30.000Z</time>
      </trkpt>
      <trkpt lat="43.59252" lon="6.23299">
        <ele>452.8</ele>
        <time>2021-03-05T15:04:45.000Z</time>
      </trkpt>
      <trkpt lat="43.59259" lon="6.23289">
        <ele>453.2</ele>
        <time>2021-03-05T15:04:55.000Z</time>
      </trkpt>
      <trkpt lat="43.59266" lon="6.23282">
        <ele>454.8</ele>
        <time>2021-03-05T15:05:07.000Z</time>
      </trkpt>
      <trkpt lat="43.59275" lon="6.23277">
        <ele>454.8</ele>
        <time>2021-03-05T15:05:15.000Z</time>
      </trkpt>
      <trkpt lat="43.59283" lon="6.23271">
        <ele>454.2</ele>
        <time>2021-03-05T15:05:25.000Z</time>
      </trkpt>
      <trkpt lat="43.59291" lon="6.23262">
        <ele>454.6</ele>
        <time>2021-03-05T15:05:38.000Z</time>
      </trkpt>
      <trkpt lat="43.59299" lon="6.23254">
        <ele>455.4</ele>
        <time>2021-03-05T15:05:47.000Z</time>
      </trkpt>
      <trkpt lat="43.59306" lon="6.23245">
        <ele>455.9</ele>
        <time>2021-03-05T15:05:59.000Z</time>
      </trkpt>
      <trkpt lat="43.59315" lon="6.2324">
        <ele>456.8</ele>
        <time>2021-03-05T15:06:11.000Z</time>
      </trkpt>
      <trkpt lat="43.59324" lon="6.23241">
        <ele>457.4</ele>
        <time>2021-03-05T15:06:21.000Z</time>
      </trkpt>
      <trkpt lat="43.59333" lon="6.23237">
        <ele>458</ele>
        <time>2021-03-05T15:06:30.000Z</time>
      </trkpt>
      <trkpt lat="43.59342" lon="6.23233">
        <ele>458.9</ele>
        <time>2021-03-05T15:06:48.000Z</time>
      </trkpt>
      <trkpt lat="43.59348" lon="6.23224">
        <ele>458.3</ele>
        <time>2021-03-05T15:07:20.000Z</time>
      </trkpt>
      <trkpt lat="43.59356" lon="6.23217">
        <ele>458.8</ele>
        <time>2021-03-05T15:07:34.000Z</time>
      </trkpt>
      <trkpt lat="43.59363" lon="6.23207">
        <ele>459.5</ele>
        <time>2021-03-05T15:07:48.000Z</time>
      </trkpt>
      <trkpt lat="43.59371" lon="6.23199">
        <ele>459.8</ele>
        <time>2021-03-05T15:07:59.000Z</time>
      </trkpt>
      <trkpt lat="43.59375" lon="6.23188">
        <ele>461.1</ele>
        <time>2021-03-05T15:08:14.000Z</time>
      </trkpt>
      <trkpt lat="43.59383" lon="6.23183">
        <ele>459.7</ele>
        <time>2021-03-05T15:08:38.000Z</time>
      </trkpt>
      <trkpt lat="43.59392" lon="6.23178">
        <ele>461.2</ele>
        <time>2021-03-05T15:09:11.000Z</time>
      </trkpt>
      <trkpt lat="43.59401" lon="6.23174">
        <ele>461.3</ele>
        <time>2021-03-05T15:09:22.000Z</time>
      </trkpt>
      <trkpt lat="43.5941" lon="6.23172">
        <ele>461.6</ele>
        <time>2021-03-05T15:09:34.000Z</time>
      </trkpt>
      <trkpt lat="43.5942" lon="6.23171">
        <ele>462</ele>
        <time>2021-03-05T15:09:45.000Z</time>
      </trkpt>
      <trkpt lat="43.59429" lon="6.23169">
        <ele>462.6</ele>
        <time>2021-03-05T15:09:55.000Z</time>
      </trkpt>
      <trkpt lat="43.59438" lon="6.23164">
        <ele>463.3</ele>
        <time>2021-03-05T15:10:08.000Z</time>
      </trkpt>
      <trkpt lat="43.59446" lon="6.23158">
        <ele>463.4</ele>
        <time>2021-03-05T15:10:17.000Z</time>
      </trkpt>
      <trkpt lat="43.59454" lon="6.23152">
        <ele>463.2</ele>
        <time>2021-03-05T15:10:29.000Z</time>
      </trkpt>
      <trkpt lat="43.59464" lon="6.23147">
        <ele>463.3</ele>
        <time>2021-03-05T15:10:38.000Z</time>
      </trkpt>
      <trkpt lat="43.59455" lon="6.23142">
        <ele>462.1</ele>
        <time>2021-03-05T15:11:07.000Z</time>
      </trkpt>
      <trkpt lat="43.59457" lon="6.2313">
        <ele>464</ele>
        <time>2021-03-05T15:12:15.000Z</time>
      </trkpt>
      <trkpt lat="43.59451" lon="6.2314">
        <ele>463.2</ele>
        <time>2021-03-05T15:12:36.000Z</time>
      </trkpt>
      <trkpt lat="43.59456" lon="6.23151">
        <ele>463.3</ele>
        <time>2021-03-05T15:12:49.000Z</time>
      </trkpt>
      <trkpt lat="43.59464" lon="6.23159">
        <ele>451.2</ele>
        <time>2021-03-05T15:13:06.000Z</time>
      </trkpt>
      <trkpt lat="43.59471" lon="6.2315">
        <ele>463.3</ele>
        <time>2021-03-05T15:13:53.000Z</time>
      </trkpt>
      <trkpt lat="43.59479" lon="6.23145">
        <ele>463.8</ele>
        <time>2021-03-05T15:14:26.000Z</time>
      </trkpt>
      <trkpt lat="43.59488" lon="6.23144">
        <ele>463.8</ele>
        <time>2021-03-05T15:14:35.000Z</time>
      </trkpt>
      <trkpt lat="43.59498" lon="6.23145">
        <ele>464.5</ele>
        <time>2021-03-05T15:14:47.000Z</time>
      </trkpt>
      <trkpt lat="43.59507" lon="6.23141">
        <ele>465</ele>
        <time>2021-03-05T15:14:59.000Z</time>
      </trkpt>
      <trkpt lat="43.59516" lon="6.23139">
        <ele>465.3</ele>
        <time>2021-03-05T15:15:09.000Z</time>
      </trkpt>
      <trkpt lat="43.59525" lon="6.23135">
        <ele>465.3</ele>
        <time>2021-03-05T15:15:20.000Z</time>
      </trkpt>
      <trkpt lat="43.59533" lon="6.23128">
        <ele>466.3</ele>
        <time>2021-03-05T15:15:33.000Z</time>
      </trkpt>
      <trkpt lat="43.59542" lon="6.23126">
        <ele>466.6</ele>
        <time>2021-03-05T15:15:45.000Z</time>
      </trkpt>
      <trkpt lat="43.59549" lon="6.23132">
        <ele>467.6</ele>
        <time>2021-03-05T15:16:04.000Z</time>
      </trkpt>
      <trkpt lat="43.59559" lon="6.2313">
        <ele>467.6</ele>
        <time>2021-03-05T15:17:30.000Z</time>
      </trkpt>
      <trkpt lat="43.59567" lon="6.23124">
        <ele>468.1</ele>
        <time>2021-03-05T15:17:59.000Z</time>
      </trkpt>
      <trkpt lat="43.59576" lon="6.23119">
        <ele>468.6</ele>
        <time>2021-03-05T15:18:15.000Z</time>
      </trkpt>
      <trkpt lat="43.59585" lon="6.23119">
        <ele>469.1</ele>
        <time>2021-03-05T15:18:42.000Z</time>
      </trkpt>
      <trkpt lat="43.59593" lon="6.23112">
        <ele>469.8</ele>
        <time>2021-03-05T15:19:04.000Z</time>
      </trkpt>
      <trkpt lat="43.59595" lon="6.231">
        <ele>470.7</ele>
        <time>2021-03-05T15:19:53.000Z</time>
      </trkpt>
      <trkpt lat="43.59602" lon="6.23091">
        <ele>470.7</ele>
        <time>2021-03-05T15:20:18.000Z</time>
      </trkpt>
      <trkpt lat="43.59611" lon="6.23095">
        <ele>471.9</ele>
        <time>2021-03-05T15:20:35.000Z</time>
      </trkpt>
      <trkpt lat="43.59611" lon="6.23082">
        <ele>472</ele>
        <time>2021-03-05T15:21:02.000Z</time>
      </trkpt>
      <trkpt lat="43.59609" lon="6.2307">
        <ele>472.1</ele>
        <time>2021-03-05T15:21:15.000Z</time>
      </trkpt>
      <trkpt lat="43.59609" lon="6.23057">
        <ele>472.3</ele>
        <time>2021-03-05T15:21:37.000Z</time>
      </trkpt>
      <trkpt lat="43.59612" lon="6.23046">
        <ele>470.8</ele>
        <time>2021-03-05T15:22:09.000Z</time>
      </trkpt>
      <trkpt lat="43.59619" lon="6.23036">
        <ele>471</ele>
        <time>2021-03-05T15:22:24.000Z</time>
      </trkpt>
      <trkpt lat="43.59622" lon="6.23024">
        <ele>470.7</ele>
        <time>2021-03-05T15:22:35.000Z</time>
      </trkpt>
      <trkpt lat="43.59624" lon="6.23011">
        <ele>470.4</ele>
        <time>2021-03-05T15:22:45.000Z</time>
      </trkpt>
      <trkpt lat="43.59628" lon="6.23">
        <ele>470.2</ele>
        <time>2021-03-05T15:22:53.000Z</time>
      </trkpt>
      <trkpt lat="43.59631" lon="6.22988">
        <ele>468.5</ele>
        <time>2021-03-05T15:23:03.000Z</time>
      </trkpt>
      <trkpt lat="43.59632" lon="6.22975">
        <ele>469.7</ele>
        <time>2021-03-05T15:23:18.000Z</time>
      </trkpt>
      <trkpt lat="43.59633" lon="6.22962">
        <ele>468.8</ele>
        <time>2021-03-05T15:23:30.000Z</time>
      </trkpt>
      <trkpt lat="43.59632" lon="6.22949">
        <ele>469.4</ele>
        <time>2021-03-05T15:23:40.000Z</time>
      </trkpt>
      <trkpt lat="43.59633" lon="6.22936">
        <ele>469.7</ele>
        <time>2021-03-05T15:23:52.000Z</time>
      </trkpt>
      <trkpt lat="43.59633" lon="6.22923">
        <ele>470</ele>
        <time>2021-03-05T15:24:05.000Z</time>
      </trkpt>
      <trkpt lat="43.59635" lon="6.22911">
        <ele>469.5</ele>
        <time>2021-03-05T15:24:15.000Z</time>
      </trkpt>
      <trkpt lat="43.59639" lon="6.22899">
        <ele>469.5</ele>
        <time>2021-03-05T15:24:25.000Z</time>
      </trkpt>
      <trkpt lat="43.59641" lon="6.22887">
        <ele>469.7</ele>
        <time>2021-03-05T15:24:35.000Z</time>
      </trkpt>
      <trkpt lat="43.59646" lon="6.22876">
        <ele>470.7</ele>
        <time>2021-03-05T15:25:43.000Z</time>
      </trkpt>
      <trkpt lat="43.59645" lon="6.22863">
        <ele>471.4</ele>
        <time>2021-03-05T15:26:14.000Z</time>
      </trkpt>
      <trkpt lat="43.59646" lon="6.22851">
        <ele>469.9</ele>
        <time>2021-03-05T15:26:29.000Z</time>
      </trkpt>
      <trkpt lat="43.59648" lon="6.22838">
        <ele>472.1</ele>
        <time>2021-03-05T15:26:37.000Z</time>
      </trkpt>
      <trkpt lat="43.59651" lon="6.22825">
        <ele>473.6</ele>
        <time>2021-03-05T15:26:50.000Z</time>
      </trkpt>
      <trkpt lat="43.59653" lon="6.22813">
        <ele>472.4</ele>
        <time>2021-03-05T15:27:04.000Z</time>
      </trkpt>
      <trkpt lat="43.59656" lon="6.22801">
        <ele>473.4</ele>
        <time>2021-03-05T15:27:15.000Z</time>
      </trkpt>
      <trkpt lat="43.59659" lon="6.22788">
        <ele>475.1</ele>
        <time>2021-03-05T15:27:25.000Z</time>
      </trkpt>
      <trkpt lat="43.59662" lon="6.22774">
        <ele>472.8</ele>
        <time>2021-03-05T15:27:38.000Z</time>
      </trkpt>
      <trkpt lat="43.59664" lon="6.22762">
        <ele>473.1</ele>
        <time>2021-03-05T15:27:48.000Z</time>
      </trkpt>
      <trkpt lat="43.59668" lon="6.22751">
        <ele>473.9</ele>
        <time>2021-03-05T15:28:08.000Z</time>
      </trkpt>
      <trkpt lat="43.59672" lon="6.22739">
        <ele>473.3</ele>
        <time>2021-03-05T15:28:26.000Z</time>
      </trkpt>
      <trkpt lat="43.59674" lon="6.22727">
        <ele>473.1</ele>
        <time>2021-03-05T15:28:41.000Z</time>
      </trkpt>
      <trkpt lat="43.59676" lon="6.22714">
        <ele>473.3</ele>
        <time>2021-03-05T15:28:56.000Z</time>
      </trkpt>
      <trkpt lat="43.59677" lon="6.22701">
        <ele>473.5</ele>
        <time>2021-03-05T15:29:18.000Z</time>
      </trkpt>
      <trkpt lat="43.59678" lon="6.22688">
        <ele>473.2</ele>
        <time>2021-03-05T15:29:33.000Z</time>
      </trkpt>
      <trkpt lat="43.5968" lon="6.22675">
        <ele>472.8</ele>
        <time>2021-03-05T15:29:51.000Z</time>
      </trkpt>
      <trkpt lat="43.59681" lon="6.22663">
        <ele>470.9</ele>
        <time>2021-03-05T15:30:08.000Z</time>
      </trkpt>
      <trkpt lat="43.59678" lon="6.2265">
        <ele>472.3</ele>
        <time>2021-03-05T15:30:17.000Z</time>
      </trkpt>
      <trkpt lat="43.59678" lon="6.22636">
        <ele>473.2</ele>
        <time>2021-03-05T15:30:25.000Z</time>
      </trkpt>
      <trkpt lat="43.59678" lon="6.22623">
        <ele>472.6</ele>
        <time>2021-03-05T15:30:36.000Z</time>
      </trkpt>
      <trkpt lat="43.59682" lon="6.22611">
        <ele>473.1</ele>
        <time>2021-03-05T15:30:45.000Z</time>
      </trkpt>
      <trkpt lat="43.59687" lon="6.226">
        <ele>471.3</ele>
        <time>2021-03-05T15:30:54.000Z</time>
      </trkpt>
      <trkpt lat="43.59695" lon="6.22593">
        <ele>471.5</ele>
        <time>2021-03-05T15:31:09.000Z</time>
      </trkpt>
      <trkpt lat="43.59704" lon="6.22594">
        <ele>471.5</ele>
        <time>2021-03-05T15:31:29.000Z</time>
      </trkpt>
      <trkpt lat="43.59713" lon="6.22596">
        <ele>471.4</ele>
        <time>2021-03-05T15:32:16.000Z</time>
      </trkpt>
      <trkpt lat="43.59723" lon="6.22598">
        <ele>471.3</ele>
        <time>2021-03-05T15:32:29.000Z</time>
      </trkpt>
      <trkpt lat="43.59733" lon="6.22597">
        <ele>471.4</ele>
        <time>2021-03-05T15:32:40.000Z</time>
      </trkpt>
      <trkpt lat="43.59742" lon="6.22596">
        <ele>471.8</ele>
        <time>2021-03-05T15:32:50.000Z</time>
      </trkpt>
      <trkpt lat="43.59752" lon="6.22597">
        <ele>470.1</ele>
        <time>2021-03-05T15:33:11.000Z</time>
      </trkpt>
      <trkpt lat="43.59761" lon="6.22594">
        <ele>469.5</ele>
        <time>2021-03-05T15:33:24.000Z</time>
      </trkpt>
      <trkpt lat="43.5977" lon="6.22593">
        <ele>470.4</ele>
        <time>2021-03-05T15:33:36.000Z</time>
      </trkpt>
      <trkpt lat="43.59774" lon="6.22582">
        <ele>470.8</ele>
        <time>2021-03-05T15:33:57.000Z</time>
      </trkpt>
      <trkpt lat="43.59783" lon="6.22585">
        <ele>473.6</ele>
        <time>2021-03-05T15:34:48.000Z</time>
      </trkpt>
      <trkpt lat="43.59791" lon="6.22592">
        <ele>472.2</ele>
        <time>2021-03-05T15:35:12.000Z</time>
      </trkpt>
      <trkpt lat="43.59801" lon="6.22591">
        <ele>472.1</ele>
        <time>2021-03-05T15:35:24.000Z</time>
      </trkpt>
      <trkpt lat="43.59811" lon="6.2259">
        <ele>472.1</ele>
        <time>2021-03-05T15:35:36.000Z</time>
      </trkpt>
      <trkpt lat="43.5982" lon="6.22589">
        <ele>472.2</ele>
        <time>2021-03-05T15:35:48.000Z</time>
      </trkpt>
      <trkpt lat="43.59829" lon="6.22589">
        <ele>472.3</ele>
        <time>2021-03-05T15:35:58.000Z</time>
      </trkpt>
      <trkpt lat="43.59838" lon="6.22588">
        <ele>472.4</ele>
        <time>2021-03-05T15:36:08.000Z</time>
      </trkpt>
      <trkpt lat="43.59848" lon="6.22588">
        <ele>471.9</ele>
        <time>2021-03-05T15:36:18.000Z</time>
      </trkpt>
      <trkpt lat="43.59857" lon="6.22589">
        <ele>471.9</ele>
        <time>2021-03-05T15:36:28.000Z</time>
      </trkpt>
      <trkpt lat="43.59866" lon="6.22588">
        <ele>472.3</ele>
        <time>2021-03-05T15:36:38.000Z</time>
      </trkpt>
      <trkpt lat="43.59876" lon="6.22586">
        <ele>472.3</ele>
        <time>2021-03-05T15:36:50.000Z</time>
      </trkpt>
      <trkpt lat="43.59885" lon="6.22585">
        <ele>472.7</ele>
        <time>2021-03-05T15:37:00.000Z</time>
      </trkpt>
      <trkpt lat="43.59894" lon="6.22584">
        <ele>473</ele>
        <time>2021-03-05T15:37:25.000Z</time>
      </trkpt>
      <trkpt lat="43.59904" lon="6.22581">
        <ele>473</ele>
        <time>2021-03-05T15:37:34.000Z</time>
      </trkpt>
      <trkpt lat="43.59912" lon="6.22576">
        <ele>472.2</ele>
        <time>2021-03-05T15:37:45.000Z</time>
      </trkpt>
      <trkpt lat="43.5992" lon="6.22572">
        <ele>471.9</ele>
        <time>2021-03-05T15:37:54.000Z</time>
      </trkpt>
      <trkpt lat="43.5993" lon="6.22569">
        <ele>472.8</ele>
        <time>2021-03-05T15:38:36.000Z</time>
      </trkpt>
      <trkpt lat="43.59939" lon="6.22567">
        <ele>472.5</ele>
        <time>2021-03-05T15:38:47.000Z</time>
      </trkpt>
      <trkpt lat="43.59948" lon="6.22564">
        <ele>472.4</ele>
        <time>2021-03-05T15:39:01.000Z</time>
      </trkpt>
      <trkpt lat="43.59958" lon="6.22561">
        <ele>471.3</ele>
        <time>2021-03-05T15:39:15.000Z</time>
      </trkpt>
      <trkpt lat="43.59966" lon="6.22556">
        <ele>471.4</ele>
        <time>2021-03-05T15:39:29.000Z</time>
      </trkpt>
      <trkpt lat="43.59976" lon="6.22554">
        <ele>471.3</ele>
        <time>2021-03-05T15:39:40.000Z</time>
      </trkpt>
      <trkpt lat="43.59984" lon="6.2255">
        <ele>470.7</ele>
        <time>2021-03-05T15:39:49.000Z</time>
      </trkpt>
      <trkpt lat="43.59994" lon="6.22547">
        <ele>470.5</ele>
        <time>2021-03-05T15:40:02.000Z</time>
      </trkpt>
      <trkpt lat="43.60003" lon="6.22543">
        <ele>470.1</ele>
        <time>2021-03-05T15:40:15.000Z</time>
      </trkpt>
      <trkpt lat="43.60013" lon="6.22539">
        <ele>470.4</ele>
        <time>2021-03-05T15:40:25.000Z</time>
      </trkpt>
      <trkpt lat="43.60022" lon="6.22534">
        <ele>470.3</ele>
        <time>2021-03-05T15:40:36.000Z</time>
      </trkpt>
      <trkpt lat="43.60031" lon="6.22528">
        <ele>468.7</ele>
        <time>2021-03-05T15:40:54.000Z</time>
      </trkpt>
      <trkpt lat="43.60039" lon="6.2252">
        <ele>470.5</ele>
        <time>2021-03-05T15:41:03.000Z</time>
      </trkpt>
      <trkpt lat="43.60047" lon="6.22514">
        <ele>470.4</ele>
        <time>2021-03-05T15:41:15.000Z</time>
      </trkpt>
      <trkpt lat="43.60056" lon="6.22512">
        <ele>471.2</ele>
        <time>2021-03-05T15:41:31.000Z</time>
      </trkpt>
      <trkpt lat="43.60066" lon="6.22514">
        <ele>470.1</ele>
        <time>2021-03-05T15:41:54.000Z</time>
      </trkpt>
      <trkpt lat="43.60075" lon="6.22519">
        <ele>469.8</ele>
        <time>2021-03-05T15:42:08.000Z</time>
      </trkpt>
      <trkpt lat="43.60084" lon="6.22522">
        <ele>469.2</ele>
        <time>2021-03-05T15:42:19.000Z</time>
      </trkpt>
      <trkpt lat="43.60093" lon="6.22525">
        <ele>468.8</ele>
        <time>2021-03-05T15:42:29.000Z</time>
      </trkpt>
      <trkpt lat="43.60102" lon="6.22527">
        <ele>468.3</ele>
        <time>2021-03-05T15:42:40.000Z</time>
      </trkpt>
      <trkpt lat="43.60112" lon="6.2253">
        <ele>467.7</ele>
        <time>2021-03-05T15:42:51.000Z</time>
      </trkpt>
      <trkpt lat="43.60122" lon="6.22533">
        <ele>467.5</ele>
        <time>2021-03-05T15:43:02.000Z</time>
      </trkpt>
      <trkpt lat="43.60131" lon="6.22536">
        <ele>468.2</ele>
        <time>2021-03-05T15:43:13.000Z</time>
      </trkpt>
      <trkpt lat="43.60139" lon="6.22541">
        <ele>468.6</ele>
        <time>2021-03-05T15:43:22.000Z</time>
      </trkpt>
      <trkpt lat="43.60148" lon="6.22544">
        <ele>469.1</ele>
        <time>2021-03-05T15:43:34.000Z</time>
      </trkpt>
      <trkpt lat="43.60157" lon="6.22549">
        <ele>469.6</ele>
        <time>2021-03-05T15:43:45.000Z</time>
      </trkpt>
      <trkpt lat="43.60165" lon="6.22555">
        <ele>469.9</ele>
        <time>2021-03-05T15:43:56.000Z</time>
      </trkpt>
      <trkpt lat="43.60173" lon="6.22562">
        <ele>471</ele>
        <time>2021-03-05T15:44:07.000Z</time>
      </trkpt>
      <trkpt lat="43.6018" lon="6.22571">
        <ele>479.9</ele>
        <time>2021-03-05T15:44:37.000Z</time>
      </trkpt>
      <trkpt lat="43.60188" lon="6.22577">
        <ele>474.9</ele>
        <time>2021-03-05T15:44:49.000Z</time>
      </trkpt>
      <trkpt lat="43.60197" lon="6.22581">
        <ele>472.3</ele>
        <time>2021-03-05T15:45:03.000Z</time>
      </trkpt>
      <trkpt lat="43.60206" lon="6.22584">
        <ele>472.7</ele>
        <time>2021-03-05T15:45:19.000Z</time>
      </trkpt>
      <trkpt lat="43.60215" lon="6.22584">
        <ele>474.6</ele>
        <time>2021-03-05T15:46:19.000Z</time>
      </trkpt>
      <trkpt lat="43.60224" lon="6.22587">
        <ele>475.6</ele>
        <time>2021-03-05T15:46:33.000Z</time>
      </trkpt>
      <trkpt lat="43.60234" lon="6.2259">
        <ele>476.8</ele>
        <time>2021-03-05T15:46:49.000Z</time>
      </trkpt>
      <trkpt lat="43.60242" lon="6.22595">
        <ele>477.5</ele>
        <time>2021-03-05T15:47:05.000Z</time>
      </trkpt>
      <trkpt lat="43.6025" lon="6.226">
        <ele>478.7</ele>
        <time>2021-03-05T15:47:23.000Z</time>
      </trkpt>
      <trkpt lat="43.60259" lon="6.22604">
        <ele>479.6</ele>
        <time>2021-03-05T15:47:36.000Z</time>
      </trkpt>
      <trkpt lat="43.60268" lon="6.22604">
        <ele>481.2</ele>
        <time>2021-03-05T15:47:49.000Z</time>
      </trkpt>
      <trkpt lat="43.60277" lon="6.22601">
        <ele>483.1</ele>
        <time>2021-03-05T15:48:16.000Z</time>
      </trkpt>
      <trkpt lat="43.60286" lon="6.22595">
        <ele>483.5</ele>
        <time>2021-03-05T15:48:28.000Z</time>
      </trkpt>
      <trkpt lat="43.60294" lon="6.22591">
        <ele>483.9</ele>
        <time>2021-03-05T15:48:40.000Z</time>
      </trkpt>
      <trkpt lat="43.60303" lon="6.22585">
        <ele>484</ele>
        <time>2021-03-05T15:48:52.000Z</time>
      </trkpt>
      <trkpt lat="43.60313" lon="6.22587">
        <ele>484.8</ele>
        <time>2021-03-05T15:49:46.000Z</time>
      </trkpt>
      <trkpt lat="43.60321" lon="6.22581">
        <ele>484.8</ele>
        <time>2021-03-05T15:50:04.000Z</time>
      </trkpt>
      <trkpt lat="43.6033" lon="6.22576">
        <ele>485.1</ele>
        <time>2021-03-05T15:50:25.000Z</time>
      </trkpt>
      <trkpt lat="43.60338" lon="6.22569">
        <ele>485.2</ele>
        <time>2021-03-05T15:50:37.000Z</time>
      </trkpt>
      <trkpt lat="43.60347" lon="6.22564">
        <ele>485.2</ele>
        <time>2021-03-05T15:50:49.000Z</time>
      </trkpt>
      <trkpt lat="43.60355" lon="6.22569">
        <ele>484.9</ele>
        <time>2021-03-05T15:51:10.000Z</time>
      </trkpt>
      <trkpt lat="43.60362" lon="6.22578">
        <ele>485.3</ele>
        <time>2021-03-05T15:51:44.000Z</time>
      </trkpt>
      <trkpt lat="43.60364" lon="6.22591">
        <ele>486.1</ele>
        <time>2021-03-05T15:51:56.000Z</time>
      </trkpt>
      <trkpt lat="43.60369" lon="6.22602">
        <ele>487</ele>
        <time>2021-03-05T15:52:06.000Z</time>
      </trkpt>
      <trkpt lat="43.60373" lon="6.22614">
        <ele>486.4</ele>
        <time>2021-03-05T15:52:18.000Z</time>
      </trkpt>
      <trkpt lat="43.60379" lon="6.22624">
        <ele>485.8</ele>
        <time>2021-03-05T15:52:29.000Z</time>
      </trkpt>
      <trkpt lat="43.60387" lon="6.22632">
        <ele>484.8</ele>
        <time>2021-03-05T15:52:42.000Z</time>
      </trkpt>
      <trkpt lat="43.60376" lon="6.22622">
        <ele>482.7</ele>
        <time>2021-03-05T15:34:05.000Z</time>
      </trkpt>
      <trkpt lat="43.60376" lon="6.22622">
        <ele>482.7</ele>
        <time>2021-03-05T15:34:04.000Z</time>
      </trkpt>
      <trkpt lat="43.60385" lon="6.22649">
        <ele>482.3</ele>
        <time>2021-03-05T15:34:04.000Z</time>
      </trkpt>
      <trkpt lat="43.60385" lon="6.22649">
        <ele>482.3</ele>
        <time>2021-03-05T15:34:04.000Z</time>
      </trkpt>
      <trkpt lat="43.60396" lon="6.22676">
        <ele>481.9</ele>
        <time>2021-03-05T15:34:04.000Z</time>
      </trkpt>
      <trkpt lat="43.60396" lon="6.22676">
        <ele>481.9</ele>
        <time>2021-03-05T15:34:04.000Z</time>
      </trkpt>
      <trkpt lat="43.60396" lon="6.22676">
        <ele>481.9</ele>
        <time>2021-03-05T15:34:04.000Z</time>
      </trkpt>
      <trkpt lat="43.60405" lon="6.22693">
        <ele>481.7</ele>
        <time>2021-03-05T15:34:04.000Z</time>
      </trkpt>
      <trkpt lat="43.60405" lon="6.22693">
        <ele>481.7</ele>
        <time>2021-03-05T15:34:04.000Z</time>
      </trkpt>
      <trkpt lat="43.60415" lon="6.22714">
        <ele>481.6</ele>
        <time>2021-03-05T15:34:04.000Z</time>
      </trkpt>
      <trkpt lat="43.60415" lon="6.22714">
        <ele>481.6</ele>
        <time>2021-03-05T15:34:04.000Z</time>
      </trkpt>
      <trkpt lat="43.60425" lon="6.22731">
        <ele>481.5</ele>
        <time>2021-03-05T15:34:04.000Z</time>
      </trkpt>
      <trkpt lat="43.60425" lon="6.22731">
        <ele>481.5</ele>
        <time>2021-03-05T15:34:04.000Z</time>
      </trkpt>
      <trkpt lat="43.60434" lon="6.22756">
        <ele>481.2</ele>
        <time>2021-03-05T15:34:04.000Z</time>
      </trkpt>
      <trkpt lat="43.60446" lon="6.22777">
        <ele>479.9</ele>
        <time>2021-03-05T15:34:04.000Z</time>
      </trkpt>
      <trkpt lat="43.60446" lon="6.22777">
        <ele>479.9</ele>
        <time>2021-03-05T15:34:04.000Z</time>
      </trkpt>
      <trkpt lat="43.60459" lon="6.22792">
        <ele>479</ele>
        <time>2021-03-05T15:34:04.000Z</time>
      </trkpt>
      <trkpt lat="43.60459" lon="6.22792">
        <ele>479</ele>
        <time>2021-03-05T15:34:04.000Z</time>
      </trkpt>
      <trkpt lat="43.60469" lon="6.22811">
        <ele>478.1</ele>
        <time>2021-03-05T15:34:04.000Z</time>
      </trkpt>
      <trkpt lat="43.60481" lon="6.22826">
        <ele>477.5</ele>
        <time>2021-03-05T15:34:04.000Z</time>
      </trkpt>
      <trkpt lat="43.60481" lon="6.22826">
        <ele>477.5</ele>
        <time>2021-03-05T15:34:04.000Z</time>
      </trkpt>
      <trkpt lat="43.60493" lon="6.22845">
        <ele>475.9</ele>
        <time>2021-03-05T15:34:04.000Z</time>
      </trkpt>
      <trkpt lat="43.60502" lon="6.22866">
        <ele>472.9</ele>
        <time>2021-03-05T15:34:04.000Z</time>
      </trkpt>
      <trkpt lat="43.60502" lon="6.22866">
        <ele>472.9</ele>
        <time>2021-03-05T15:34:04.000Z</time>
      </trkpt>
      <trkpt lat="43.60519" lon="6.22891">
        <ele>468.6</ele>
        <time>2021-03-05T15:34:04.000Z</time>
      </trkpt>
      <trkpt lat="43.60545" lon="6.22929">
        <ele>462.8</ele>
        <time>2021-03-05T15:34:04.000Z</time>
      </trkpt>
      <trkpt lat="43.60561" lon="6.22953">
        <ele>460.4</ele>
        <time>2021-03-05T15:34:04.000Z</time>
      </trkpt>
      <trkpt lat="43.60566" lon="6.22977">
        <ele>458.6</ele>
        <time>2021-03-05T15:34:04.000Z</time>
      </trkpt>
      <trkpt lat="43.60571" lon="6.22998">
        <ele>457.3</ele>
        <time>2021-03-05T15:34:04.000Z</time>
      </trkpt>
      <trkpt lat="43.60571" lon="6.22998">
        <ele>457.3</ele>
        <time>2021-03-05T15:34:04.000Z</time>
      </trkpt>
      <trkpt lat="43.60578" lon="6.23017">
        <ele>457.2</ele>
        <time>2021-03-05T15:34:04.000Z</time>
      </trkpt>
      <trkpt lat="43.60587" lon="6.23037">
        <ele>457.5</ele>
        <time>2021-03-05T15:34:04.000Z</time>
      </trkpt>
      <trkpt lat="43.60587" lon="6.23037">
        <ele>457.5</ele>
        <time>2021-03-05T15:34:04.000Z</time>
      </trkpt>
      <trkpt lat="43.60601" lon="6.23055">
        <ele>457.6</ele>
        <time>2021-03-05T15:34:04.000Z</time>
      </trkpt>
      <trkpt lat="43.60614" lon="6.23076">
        <ele>457.3</ele>
        <time>2021-03-05T15:34:04.000Z</time>
      </trkpt>
      <trkpt lat="43.60625" lon="6.23099">
        <ele>456.1</ele>
        <time>2021-03-05T15:34:04.000Z</time>
      </trkpt>
      <trkpt lat="43.60643" lon="6.23144">
        <ele>452</ele>
        <time>2021-03-05T15:34:04.000Z</time>
      </trkpt>
      <trkpt lat="43.60656" lon="6.2317">
        <ele>449.5</ele>
        <time>2021-03-05T15:34:04.000Z</time>
      </trkpt>
      <trkpt lat="43.60671" lon="6.23193">
        <ele>447.6</ele>
        <time>2021-03-05T15:34:04.000Z</time>
      </trkpt>
      <trkpt lat="43.6067" lon="6.23179">
        <ele>450.7</ele>
        <time>2021-02-20T13:57:16.000Z</time>
      </trkpt>
      <trkpt lat="43.6067" lon="6.23192">
        <ele>450</ele>
        <time>2021-02-20T13:57:52.000Z</time>
      </trkpt>
      <trkpt lat="43.60676" lon="6.23202">
        <ele>449.2</ele>
        <time>2021-02-20T13:58:11.000Z</time>
      </trkpt>
      <trkpt lat="43.60679" lon="6.23214">
        <ele>448.7</ele>
        <time>2021-02-20T13:58:23.000Z</time>
      </trkpt>
      <trkpt lat="43.60672" lon="6.23223">
        <ele>448.2</ele>
        <time>2021-02-20T13:58:34.000Z</time>
      </trkpt>
      <trkpt lat="43.60665" lon="6.23233">
        <ele>447.5</ele>
        <time>2021-02-20T13:58:45.000Z</time>
      </trkpt>
      <trkpt lat="43.60657" lon="6.23239">
        <ele>447.5</ele>
        <time>2021-02-20T13:58:56.000Z</time>
      </trkpt>
      <trkpt lat="43.60649" lon="6.23245">
        <ele>447.3</ele>
        <time>2021-02-20T13:59:06.000Z</time>
      </trkpt>
      <trkpt lat="43.60642" lon="6.23253">
        <ele>446.8</ele>
        <time>2021-02-20T13:59:16.000Z</time>
      </trkpt>
      <trkpt lat="43.60635" lon="6.23262">
        <ele>446.4</ele>
        <time>2021-02-20T13:59:25.000Z</time>
      </trkpt>
      <trkpt lat="43.60628" lon="6.23271">
        <ele>445.6</ele>
        <time>2021-02-20T13:59:35.000Z</time>
      </trkpt>
      <trkpt lat="43.60621" lon="6.2328">
        <ele>444.6</ele>
        <time>2021-02-20T13:59:48.000Z</time>
      </trkpt>
      <trkpt lat="43.60624" lon="6.23292">
        <ele>443.8</ele>
        <time>2021-02-20T14:00:04.000Z</time>
      </trkpt>
      <trkpt lat="43.60625" lon="6.23305">
        <ele>442.1</ele>
        <time>2021-02-20T14:00:25.000Z</time>
      </trkpt>
      <trkpt lat="43.60628" lon="6.23317">
        <ele>441.3</ele>
        <time>2021-02-20T14:00:46.000Z</time>
      </trkpt>
      <trkpt lat="43.60625" lon="6.23329">
        <ele>441.3</ele>
        <time>2021-02-20T14:01:17.000Z</time>
      </trkpt>
      <trkpt lat="43.60618" lon="6.2334">
        <ele>441.1</ele>
        <time>2021-02-20T14:01:29.000Z</time>
      </trkpt>
      <trkpt lat="43.60612" lon="6.2335">
        <ele>441.1</ele>
        <time>2021-02-20T14:01:39.000Z</time>
      </trkpt>
      <trkpt lat="43.60605" lon="6.23358">
        <ele>440.7</ele>
        <time>2021-02-20T14:01:52.000Z</time>
      </trkpt>
      <trkpt lat="43.60598" lon="6.23367">
        <ele>440.8</ele>
        <time>2021-02-20T14:02:11.000Z</time>
      </trkpt>
      <trkpt lat="43.60589" lon="6.23368">
        <ele>441</ele>
        <time>2021-02-20T14:02:54.000Z</time>
      </trkpt>
      <trkpt lat="43.60584" lon="6.23379">
        <ele>439.7</ele>
        <time>2021-02-20T14:03:41.000Z</time>
      </trkpt>
      <trkpt lat="43.60581" lon="6.23391">
        <ele>438</ele>
        <time>2021-02-20T14:04:06.000Z</time>
      </trkpt>
      <trkpt lat="43.60584" lon="6.23403">
        <ele>439.2</ele>
        <time>2021-02-20T14:04:17.000Z</time>
      </trkpt>
      <trkpt lat="43.60592" lon="6.23408">
        <ele>438.4</ele>
        <time>2021-02-20T14:04:31.000Z</time>
      </trkpt>
      <trkpt lat="43.60592" lon="6.2342">
        <ele>439</ele>
        <time>2021-02-20T14:04:52.000Z</time>
      </trkpt>
      <trkpt lat="43.6059" lon="6.23433">
        <ele>438.5</ele>
        <time>2021-02-20T14:05:06.000Z</time>
      </trkpt>
      <trkpt lat="43.60588" lon="6.23446">
        <ele>437.8</ele>
        <time>2021-02-20T14:05:18.000Z</time>
      </trkpt>
      <trkpt lat="43.60586" lon="6.23458">
        <ele>438.7</ele>
        <time>2021-02-20T14:05:28.000Z</time>
      </trkpt>
      <trkpt lat="43.60584" lon="6.23471">
        <ele>433.6</ele>
        <time>2021-02-20T14:05:39.000Z</time>
      </trkpt>
      <trkpt lat="43.60582" lon="6.23483">
        <ele>432.7</ele>
        <time>2021-02-20T14:05:50.000Z</time>
      </trkpt>
      <trkpt lat="43.6058" lon="6.23496">
        <ele>432.1</ele>
        <time>2021-02-20T14:06:01.000Z</time>
      </trkpt>
      <trkpt lat="43.60578" lon="6.23509">
        <ele>432.9</ele>
        <time>2021-02-20T14:06:16.000Z</time>
      </trkpt>
      <trkpt lat="43.60577" lon="6.23522">
        <ele>433</ele>
        <time>2021-02-20T14:06:29.000Z</time>
      </trkpt>
      <trkpt lat="43.60574" lon="6.23535">
        <ele>433.5</ele>
        <time>2021-02-20T14:06:58.000Z</time>
      </trkpt>
      <trkpt lat="43.60567" lon="6.23544">
        <ele>432.7</ele>
        <time>2021-02-20T14:07:14.000Z</time>
      </trkpt>
      <trkpt lat="43.6056" lon="6.23552">
        <ele>433</ele>
        <time>2021-02-20T14:07:27.000Z</time>
      </trkpt>
      <trkpt lat="43.60552" lon="6.23558">
        <ele>433.9</ele>
        <time>2021-02-20T14:07:41.000Z</time>
      </trkpt>
      <trkpt lat="43.60544" lon="6.23565">
        <ele>435.7</ele>
        <time>2021-02-20T14:08:09.000Z</time>
      </trkpt>
      <trkpt lat="43.60537" lon="6.23574">
        <ele>436.7</ele>
        <time>2021-02-20T14:08:24.000Z</time>
      </trkpt>
      <trkpt lat="43.6053" lon="6.23582">
        <ele>437.6</ele>
        <time>2021-02-20T14:08:38.000Z</time>
      </trkpt>
      <trkpt lat="43.60521" lon="6.23585">
        <ele>439.3</ele>
        <time>2021-02-20T14:08:53.000Z</time>
      </trkpt>
      <trkpt lat="43.60512" lon="6.23589">
        <ele>441</ele>
        <time>2021-02-20T14:09:15.000Z</time>
      </trkpt>
      <trkpt lat="43.60505" lon="6.23598">
        <ele>441.9</ele>
        <time>2021-02-20T14:09:28.000Z</time>
      </trkpt>
      <trkpt lat="43.60499" lon="6.23608">
        <ele>443.1</ele>
        <time>2021-02-20T14:09:41.000Z</time>
      </trkpt>
      <trkpt lat="43.60493" lon="6.23618">
        <ele>444</ele>
        <time>2021-02-20T14:09:54.000Z</time>
      </trkpt>
      <trkpt lat="43.60487" lon="6.23627">
        <ele>444.4</ele>
        <time>2021-02-20T14:10:05.000Z</time>
      </trkpt>
      <trkpt lat="43.60481" lon="6.23636">
        <ele>444.9</ele>
        <time>2021-02-20T14:10:14.000Z</time>
      </trkpt>
      <trkpt lat="43.60475" lon="6.23647">
        <ele>445.6</ele>
        <time>2021-02-20T14:10:25.000Z</time>
      </trkpt>
      <trkpt lat="43.60469" lon="6.23656">
        <ele>445.9</ele>
        <time>2021-02-20T14:10:35.000Z</time>
      </trkpt>
      <trkpt lat="43.60463" lon="6.23666">
        <ele>446.7</ele>
        <time>2021-02-20T14:10:47.000Z</time>
      </trkpt>
      <trkpt lat="43.60457" lon="6.23677">
        <ele>447.2</ele>
        <time>2021-02-20T14:10:58.000Z</time>
      </trkpt>
      <trkpt lat="43.60449" lon="6.23686">
        <ele>447.6</ele>
        <time>2021-02-20T14:11:10.000Z</time>
      </trkpt>
      <trkpt lat="43.60442" lon="6.23695">
        <ele>447.5</ele>
        <time>2021-02-20T14:11:22.000Z</time>
      </trkpt>
      <trkpt lat="43.60436" lon="6.23705">
        <ele>448.1</ele>
        <time>2021-02-20T14:11:31.000Z</time>
      </trkpt>
      <trkpt lat="43.60429" lon="6.23715">
        <ele>448.5</ele>
        <time>2021-02-20T14:11:39.000Z</time>
      </trkpt>
      <trkpt lat="43.60423" lon="6.23724">
        <ele>448.7</ele>
        <time>2021-02-20T14:11:48.000Z</time>
      </trkpt>
      <trkpt lat="43.60418" lon="6.23735">
        <ele>448.7</ele>
        <time>2021-02-20T14:11:58.000Z</time>
      </trkpt>
      <trkpt lat="43.60411" lon="6.23744">
        <ele>448.8</ele>
        <time>2021-02-20T14:12:08.000Z</time>
      </trkpt>
      <trkpt lat="43.60404" lon="6.23752">
        <ele>448.8</ele>
        <time>2021-02-20T14:12:18.000Z</time>
      </trkpt>
      <trkpt lat="43.60397" lon="6.23762">
        <ele>448.4</ele>
        <time>2021-02-20T14:12:28.000Z</time>
      </trkpt>
      <trkpt lat="43.60392" lon="6.23773">
        <ele>448.2</ele>
        <time>2021-02-20T14:12:38.000Z</time>
      </trkpt>
      <trkpt lat="43.60385" lon="6.23784">
        <ele>447.5</ele>
        <time>2021-02-20T14:12:48.000Z</time>
      </trkpt>
      <trkpt lat="43.60379" lon="6.23794">
        <ele>446.7</ele>
        <time>2021-02-20T14:12:58.000Z</time>
      </trkpt>
      <trkpt lat="43.60373" lon="6.23804">
        <ele>445.5</ele>
        <time>2021-02-20T14:13:09.000Z</time>
      </trkpt>
      <trkpt lat="43.60368" lon="6.23814">
        <ele>445.3</ele>
        <time>2021-02-20T14:13:20.000Z</time>
      </trkpt>
      <trkpt lat="43.60366" lon="6.23826">
        <ele>444.2</ele>
        <time>2021-02-20T14:13:33.000Z</time>
      </trkpt>
      <trkpt lat="43.60359" lon="6.23836">
        <ele>442.9</ele>
        <time>2021-02-20T14:13:52.000Z</time>
      </trkpt>
      <trkpt lat="43.60353" lon="6.23846">
        <ele>442.2</ele>
        <time>2021-02-20T14:14:04.000Z</time>
      </trkpt>
      <trkpt lat="43.60348" lon="6.23857">
        <ele>441.6</ele>
        <time>2021-02-20T14:14:15.000Z</time>
      </trkpt>
      <trkpt lat="43.60345" lon="6.23869">
        <ele>439.8</ele>
        <time>2021-02-20T14:14:30.000Z</time>
      </trkpt>
      <trkpt lat="43.60342" lon="6.23881">
        <ele>439</ele>
        <time>2021-02-20T14:14:43.000Z</time>
      </trkpt>
      <trkpt lat="43.60335" lon="6.23891">
        <ele>435.7</ele>
        <time>2021-02-20T14:14:53.000Z</time>
      </trkpt>
      <trkpt lat="43.60335" lon="6.23904">
        <ele>438.1</ele>
        <time>2021-02-20T14:15:10.000Z</time>
      </trkpt>
      <trkpt lat="43.60326" lon="6.239">
        <ele>438</ele>
        <time>2021-02-20T14:21:08.000Z</time>
      </trkpt>
      <trkpt lat="43.60334" lon="6.23906">
        <ele>438.6</ele>
        <time>2021-02-20T14:44:50.000Z</time>
      </trkpt>
      <trkpt lat="43.60332" lon="6.23894">
        <ele>438.4</ele>
        <time>2021-02-20T14:47:20.000Z</time>
      </trkpt>
      <trkpt lat="43.60336" lon="6.23905">
        <ele>436.4</ele>
        <time>2021-02-20T14:50:44.000Z</time>
      </trkpt>
      <trkpt lat="43.60344" lon="6.23897">
        <ele>428.1</ele>
        <time>2021-02-20T14:52:44.000Z</time>
      </trkpt>
      <trkpt lat="43.60338" lon="6.23907">
        <ele>444.2</ele>
        <time>2021-02-20T14:52:58.000Z</time>
      </trkpt>
      <trkpt lat="43.60329" lon="6.23903">
        <ele>440.6</ele>
        <time>2021-02-20T14:53:19.000Z</time>
      </trkpt>
      <trkpt lat="43.60339" lon="6.23908">
        <ele>438.9</ele>
        <time>2021-02-20T14:53:37.000Z</time>
      </trkpt>
      <trkpt lat="43.60334" lon="6.23897">
        <ele>438.3</ele>
        <time>2021-02-20T14:56:08.000Z</time>
      </trkpt>
      <trkpt lat="43.60327" lon="6.2389">
        <ele>438.2</ele>
        <time>2021-02-20T14:56:31.000Z</time>
      </trkpt>
      <trkpt lat="43.6033" lon="6.23902">
        <ele>438.8</ele>
        <time>2021-02-20T14:58:41.000Z</time>
      </trkpt>
      <trkpt lat="43.60339" lon="6.23903">
        <ele>439.8</ele>
        <time>2021-02-20T15:01:02.000Z</time>
      </trkpt>
      <trkpt lat="43.6033" lon="6.23899">
        <ele>439.4</ele>
        <time>2021-02-20T15:04:40.000Z</time>
      </trkpt>
      <trkpt lat="43.60326" lon="6.23911">
        <ele>440.5</ele>
        <time>2021-02-20T15:09:05.000Z</time>
      </trkpt>
      <trkpt lat="43.60319" lon="6.23919">
        <ele>439.1</ele>
        <time>2021-02-20T15:09:19.000Z</time>
      </trkpt>
      <trkpt lat="43.60314" lon="6.2393">
        <ele>439.7</ele>
        <time>2021-02-20T15:09:33.000Z</time>
      </trkpt>
      <trkpt lat="43.60309" lon="6.23941">
        <ele>441.2</ele>
        <time>2021-02-20T15:09:45.000Z</time>
      </trkpt>
      <trkpt lat="43.60304" lon="6.23951">
        <ele>442.8</ele>
        <time>2021-02-20T15:09:59.000Z</time>
      </trkpt>
      <trkpt lat="43.60296" lon="6.23958">
        <ele>443.2</ele>
        <time>2021-02-20T15:10:16.000Z</time>
      </trkpt>
      <trkpt lat="43.60289" lon="6.23968">
        <ele>443.6</ele>
        <time>2021-02-20T15:10:30.000Z</time>
      </trkpt>
      <trkpt lat="43.60283" lon="6.23977">
        <ele>443.8</ele>
        <time>2021-02-20T15:10:45.000Z</time>
      </trkpt>
      <trkpt lat="43.60277" lon="6.23988">
        <ele>444.3</ele>
        <time>2021-02-20T15:11:00.000Z</time>
      </trkpt>
      <trkpt lat="43.60272" lon="6.23998">
        <ele>443.8</ele>
        <time>2021-02-20T15:11:15.000Z</time>
      </trkpt>
      <trkpt lat="43.60267" lon="6.24009">
        <ele>443.5</ele>
        <time>2021-02-20T15:11:31.000Z</time>
      </trkpt>
      <trkpt lat="43.60261" lon="6.2402">
        <ele>442.9</ele>
        <time>2021-02-20T15:11:42.000Z</time>
      </trkpt>
      <trkpt lat="43.60255" lon="6.24029">
        <ele>442.4</ele>
        <time>2021-02-20T15:11:53.000Z</time>
      </trkpt>
      <trkpt lat="43.6025" lon="6.2404">
        <ele>441.5</ele>
        <time>2021-02-20T15:12:06.000Z</time>
      </trkpt>
      <trkpt lat="43.60242" lon="6.24048">
        <ele>441.8</ele>
        <time>2021-02-20T15:12:22.000Z</time>
      </trkpt>
      <trkpt lat="43.60246" lon="6.24059">
        <ele>440.1</ele>
        <time>2021-02-20T15:12:50.000Z</time>
      </trkpt>
      <trkpt lat="43.60238" lon="6.24063">
        <ele>440.8</ele>
        <time>2021-02-20T15:18:28.000Z</time>
      </trkpt>
      <trkpt lat="43.60234" lon="6.24075">
        <ele>440.7</ele>
        <time>2021-02-20T15:18:39.000Z</time>
      </trkpt>
      <trkpt lat="43.60228" lon="6.24085">
        <ele>439.6</ele>
        <time>2021-02-20T15:18:51.000Z</time>
      </trkpt>
      <trkpt lat="43.6022" lon="6.24094">
        <ele>439.4</ele>
        <time>2021-02-20T15:19:02.000Z</time>
      </trkpt>
      <trkpt lat="43.60213" lon="6.24101">
        <ele>443.2</ele>
        <time>2021-02-20T15:19:11.000Z</time>
      </trkpt>
      <trkpt lat="43.60207" lon="6.24111">
        <ele>438.6</ele>
        <time>2021-02-20T15:19:27.000Z</time>
      </trkpt>
      <trkpt lat="43.602" lon="6.2412">
        <ele>437.4</ele>
        <time>2021-02-20T15:19:39.000Z</time>
      </trkpt>
      <trkpt lat="43.60193" lon="6.24129">
        <ele>439.3</ele>
        <time>2021-02-20T15:19:53.000Z</time>
      </trkpt>
      <trkpt lat="43.60187" lon="6.2414">
        <ele>439.7</ele>
        <time>2021-02-20T15:20:04.000Z</time>
      </trkpt>
      <trkpt lat="43.60181" lon="6.2415">
        <ele>440.1</ele>
        <time>2021-02-20T15:20:14.000Z</time>
      </trkpt>
      <trkpt lat="43.60176" lon="6.24161">
        <ele>440.3</ele>
        <time>2021-02-20T15:20:23.000Z</time>
      </trkpt>
      <trkpt lat="43.6017" lon="6.2417">
        <ele>440.8</ele>
        <time>2021-02-20T15:20:36.000Z</time>
      </trkpt>
      <trkpt lat="43.60162" lon="6.24179">
        <ele>447.7</ele>
        <time>2021-02-20T15:21:03.000Z</time>
      </trkpt>
      <trkpt lat="43.60156" lon="6.24188">
        <ele>443.3</ele>
        <time>2021-02-20T15:21:13.000Z</time>
      </trkpt>
      <trkpt lat="43.60147" lon="6.24191">
        <ele>441.1</ele>
        <time>2021-02-20T15:21:29.000Z</time>
      </trkpt>
      <trkpt lat="43.60137" lon="6.24195">
        <ele>444.7</ele>
        <time>2021-02-20T15:21:54.000Z</time>
      </trkpt>
      <trkpt lat="43.60129" lon="6.24202">
        <ele>443.3</ele>
        <time>2021-02-20T15:22:05.000Z</time>
      </trkpt>
      <trkpt lat="43.60125" lon="6.24213">
        <ele>441.4</ele>
        <time>2021-02-20T15:22:17.000Z</time>
      </trkpt>
      <trkpt lat="43.60121" lon="6.24225">
        <ele>441.1</ele>
        <time>2021-02-20T15:22:28.000Z</time>
      </trkpt>
      <trkpt lat="43.60115" lon="6.24235">
        <ele>440.8</ele>
        <time>2021-02-20T15:22:40.000Z</time>
      </trkpt>
      <trkpt lat="43.6011" lon="6.24245">
        <ele>440.2</ele>
        <time>2021-02-20T15:22:50.000Z</time>
      </trkpt>
      <trkpt lat="43.60102" lon="6.24254">
        <ele>439.7</ele>
        <time>2021-02-20T15:23:02.000Z</time>
      </trkpt>
      <trkpt lat="43.60094" lon="6.24259">
        <ele>439.7</ele>
        <time>2021-02-20T15:23:11.000Z</time>
      </trkpt>
      <trkpt lat="43.60085" lon="6.24263">
        <ele>438</ele>
        <time>2021-02-20T15:23:20.000Z</time>
      </trkpt>
      <trkpt lat="43.60076" lon="6.24265">
        <ele>435.7</ele>
        <time>2021-02-20T15:23:31.000Z</time>
      </trkpt>
      <trkpt lat="43.60067" lon="6.24264">
        <ele>433.2</ele>
        <time>2021-02-20T15:23:40.000Z</time>
      </trkpt>
      <trkpt lat="43.60059" lon="6.24258">
        <ele>441.9</ele>
        <time>2021-02-20T15:23:48.000Z</time>
      </trkpt>
      <trkpt lat="43.60052" lon="6.24249">
        <ele>439.3</ele>
        <time>2021-02-20T15:23:57.000Z</time>
      </trkpt>
      <trkpt lat="43.60046" lon="6.24237">
        <ele>436.6</ele>
        <time>2021-02-20T15:24:09.000Z</time>
      </trkpt>
      <trkpt lat="43.60038" lon="6.24233">
        <ele>435.3</ele>
        <time>2021-02-20T15:24:18.000Z</time>
      </trkpt>
      <trkpt lat="43.60029" lon="6.24237">
        <ele>434.5</ele>
        <time>2021-02-20T15:24:28.000Z</time>
      </trkpt>
      <trkpt lat="43.6002" lon="6.24233">
        <ele>434.5</ele>
        <time>2021-02-20T15:24:53.000Z</time>
      </trkpt>
      <trkpt lat="43.60012" lon="6.24227">
        <ele>432.5</ele>
        <time>2021-02-20T15:25:05.000Z</time>
      </trkpt>
      <trkpt lat="43.60006" lon="6.24218">
        <ele>434.7</ele>
        <time>2021-02-20T15:25:20.000Z</time>
      </trkpt>
      <trkpt lat="43.60002" lon="6.24206">
        <ele>435.2</ele>
        <time>2021-02-20T15:26:13.000Z</time>
      </trkpt>
      <trkpt lat="43.59999" lon="6.24194">
        <ele>434.8</ele>
        <time>2021-02-20T15:26:27.000Z</time>
      </trkpt>
      <trkpt lat="43.59992" lon="6.24186">
        <ele>435.3</ele>
        <time>2021-02-20T15:26:42.000Z</time>
      </trkpt>
      <trkpt lat="43.59985" lon="6.24177">
        <ele>436.4</ele>
        <time>2021-02-20T15:26:53.000Z</time>
      </trkpt>
      <trkpt lat="43.59989" lon="6.2418">
        <ele>433.9</ele>
        <time>2021-03-18T15:03:50.000Z</time>
      </trkpt>
      <trkpt lat="43.59969" lon="6.24164">
        <ele>433.2</ele>
        <time>2021-03-18T15:03:50.000Z</time>
      </trkpt>
      <trkpt lat="43.59951" lon="6.24157">
        <ele>432.9</ele>
        <time>2021-03-18T15:03:50.000Z</time>
      </trkpt>
      <trkpt lat="43.59926" lon="6.24157">
        <ele>432.5</ele>
        <time>2021-03-18T15:03:50.000Z</time>
      </trkpt>
      <trkpt lat="43.59903" lon="6.2415">
        <ele>433.2</ele>
        <time>2021-03-18T15:03:50.000Z</time>
      </trkpt>
      <trkpt lat="43.59877" lon="6.2414">
        <ele>434.4</ele>
        <time>2021-03-18T15:03:50.000Z</time>
      </trkpt>
      <trkpt lat="43.59861" lon="6.24127">
        <ele>435.1</ele>
        <time>2021-03-18T15:03:50.000Z</time>
      </trkpt>
      <trkpt lat="43.59846" lon="6.24109">
        <ele>435.7</ele>
        <time>2021-03-18T15:03:50.000Z</time>
      </trkpt>
      <trkpt lat="43.59839" lon="6.24083">
        <ele>435.9</ele>
        <time>2021-03-18T15:03:50.000Z</time>
      </trkpt>
      <trkpt lat="43.59843" lon="6.24096">
        <ele>443.3</ele>
        <time>2021-03-05T13:30:21.000Z</time>
      </trkpt>
      <trkpt lat="43.59837" lon="6.24087">
        <ele>443.6</ele>
        <time>2021-03-05T13:30:30.000Z</time>
      </trkpt>
      <trkpt lat="43.59833" lon="6.24075">
        <ele>443.5</ele>
        <time>2021-03-05T13:30:38.000Z</time>
      </trkpt>
      <trkpt lat="43.5983" lon="6.24062">
        <ele>443.6</ele>
        <time>2021-03-05T13:30:48.000Z</time>
      </trkpt>
      <trkpt lat="43.59828" lon="6.24049">
        <ele>443.8</ele>
        <time>2021-03-05T13:30:57.000Z</time>
      </trkpt>
      <trkpt lat="43.59824" lon="6.24038">
        <ele>443.7</ele>
        <time>2021-03-05T13:31:05.000Z</time>
      </trkpt>
      <trkpt lat="43.59821" lon="6.24026">
        <ele>444</ele>
        <time>2021-03-05T13:31:14.000Z</time>
      </trkpt>
      <trkpt lat="43.59815" lon="6.24014">
        <ele>443.6</ele>
        <time>2021-03-05T13:31:22.000Z</time>
      </trkpt>
      <trkpt lat="43.59811" lon="6.24002">
        <ele>442.9</ele>
        <time>2021-03-05T13:31:31.000Z</time>
      </trkpt>
      <trkpt lat="43.59807" lon="6.23991">
        <ele>443</ele>
        <time>2021-03-05T13:31:37.000Z</time>
      </trkpt>
      <trkpt lat="43.59802" lon="6.23978">
        <ele>442.9</ele>
        <time>2021-03-05T13:31:44.000Z</time>
      </trkpt>
      <trkpt lat="43.59798" lon="6.23963">
        <ele>440.5</ele>
        <time>2021-03-05T13:31:51.000Z</time>
      </trkpt>
      <trkpt lat="43.59796" lon="6.23951">
        <ele>441.9</ele>
        <time>2021-03-05T13:31:58.000Z</time>
      </trkpt>
      <trkpt lat="43.5979" lon="6.23939">
        <ele>439.1</ele>
        <time>2021-03-05T13:32:06.000Z</time>
      </trkpt>
      <trkpt lat="43.59786" lon="6.23927">
        <ele>445.1</ele>
        <time>2021-03-05T13:32:13.000Z</time>
      </trkpt>
      <trkpt lat="43.5978" lon="6.23917">
        <ele>444.6</ele>
        <time>2021-03-05T13:32:21.000Z</time>
      </trkpt>
      <trkpt lat="43.59776" lon="6.23905">
        <ele>444.2</ele>
        <time>2021-03-05T13:32:30.000Z</time>
      </trkpt>
      <trkpt lat="43.59768" lon="6.23899">
        <ele>444.9</ele>
        <time>2021-03-05T13:32:38.000Z</time>
      </trkpt>
      <trkpt lat="43.59759" lon="6.23896">
        <ele>445.7</ele>
        <time>2021-03-05T13:32:46.000Z</time>
      </trkpt>
      <trkpt lat="43.59749" lon="6.23893">
        <ele>444</ele>
        <time>2021-03-05T13:32:55.000Z</time>
      </trkpt>
      <trkpt lat="43.59739" lon="6.23893">
        <ele>443.6</ele>
        <time>2021-03-05T13:33:05.000Z</time>
      </trkpt>
      <trkpt lat="43.59731" lon="6.23897">
        <ele>443.9</ele>
        <time>2021-03-05T13:33:13.000Z</time>
      </trkpt>
      <trkpt lat="43.59723" lon="6.23903">
        <ele>444</ele>
        <time>2021-03-05T13:33:21.000Z</time>
      </trkpt>
      <trkpt lat="43.59713" lon="6.23903">
        <ele>443.8</ele>
        <time>2021-03-05T13:33:30.000Z</time>
      </trkpt>
      <trkpt lat="43.59705" lon="6.23895">
        <ele>443.6</ele>
        <time>2021-03-05T13:33:42.000Z</time>
      </trkpt>
      <trkpt lat="43.59702" lon="6.23884">
        <ele>443.6</ele>
        <time>2021-03-05T13:34:15.000Z</time>
      </trkpt>
      <trkpt lat="43.59695" lon="6.23876">
        <ele>444.2</ele>
        <time>2021-03-05T13:34:36.000Z</time>
      </trkpt>
      <trkpt lat="43.59686" lon="6.23871">
        <ele>444.4</ele>
        <time>2021-03-05T13:36:20.000Z</time>
      </trkpt>
      <trkpt lat="43.59677" lon="6.23873">
        <ele>444</ele>
        <time>2021-03-05T13:36:35.000Z</time>
      </trkpt>
      <trkpt lat="43.59668" lon="6.23871">
        <ele>441.3</ele>
        <time>2021-03-05T13:36:59.000Z</time>
      </trkpt>
      <trkpt lat="43.59659" lon="6.23874">
        <ele>440.8</ele>
        <time>2021-03-05T13:37:11.000Z</time>
      </trkpt>
      <trkpt lat="43.5965" lon="6.23877">
        <ele>441.7</ele>
        <time>2021-03-05T13:37:29.000Z</time>
      </trkpt>
      <trkpt lat="43.59641" lon="6.23881">
        <ele>442.1</ele>
        <time>2021-03-05T13:37:42.000Z</time>
      </trkpt>
      <trkpt lat="43.59632" lon="6.23881">
        <ele>443.2</ele>
        <time>2021-03-05T13:37:50.000Z</time>
      </trkpt>
      <trkpt lat="43.59623" lon="6.23879">
        <ele>444.5</ele>
        <time>2021-03-05T13:38:02.000Z</time>
      </trkpt>
      <trkpt lat="43.59614" lon="6.23876">
        <ele>446.3</ele>
        <time>2021-03-05T13:38:14.000Z</time>
      </trkpt>
      <trkpt lat="43.59605" lon="6.23875">
        <ele>448.5</ele>
        <time>2021-03-05T13:38:30.000Z</time>
      </trkpt>
      <trkpt lat="43.59599" lon="6.23865">
        <ele>449.3</ele>
        <time>2021-03-05T13:38:45.000Z</time>
      </trkpt>
      <trkpt lat="43.59593" lon="6.23856">
        <ele>449.7</ele>
        <time>2021-03-05T13:38:55.000Z</time>
      </trkpt>
      <trkpt lat="43.59585" lon="6.23849">
        <ele>450.8</ele>
        <time>2021-03-05T13:39:07.000Z</time>
      </trkpt>
      <trkpt lat="43.59579" lon="6.2384">
        <ele>451.4</ele>
        <time>2021-03-05T13:39:24.000Z</time>
      </trkpt>
      <trkpt lat="43.59572" lon="6.23831">
        <ele>450</ele>
        <time>2021-03-05T13:39:35.000Z</time>
      </trkpt>
      <trkpt lat="43.59565" lon="6.23824">
        <ele>448.9</ele>
        <time>2021-03-05T13:39:45.000Z</time>
      </trkpt>
      <trkpt lat="43.59556" lon="6.23818">
        <ele>447.2</ele>
        <time>2021-03-05T13:40:01.000Z</time>
      </trkpt>
      <trkpt lat="43.59549" lon="6.23808">
        <ele>444.8</ele>
        <time>2021-03-05T13:40:17.000Z</time>
      </trkpt>
      <trkpt lat="43.59542" lon="6.238">
        <ele>443.8</ele>
        <time>2021-03-05T13:40:28.000Z</time>
      </trkpt>
      <trkpt lat="43.59536" lon="6.2379">
        <ele>443.1</ele>
        <time>2021-03-05T13:40:41.000Z</time>
      </trkpt>
      <trkpt lat="43.59529" lon="6.2378">
        <ele>442.7</ele>
        <time>2021-03-05T13:40:54.000Z</time>
      </trkpt>
      <trkpt lat="43.59521" lon="6.23773">
        <ele>442.5</ele>
        <time>2021-03-05T13:41:08.000Z</time>
      </trkpt>
      <trkpt lat="43.59514" lon="6.23767">
        <ele>440.7</ele>
        <time>2021-03-05T13:41:21.000Z</time>
      </trkpt>
      <trkpt lat="43.59505" lon="6.23762">
        <ele>440.8</ele>
        <time>2021-03-05T13:41:34.000Z</time>
      </trkpt>
      <trkpt lat="43.59497" lon="6.23757">
        <ele>440.7</ele>
        <time>2021-03-05T13:41:45.000Z</time>
      </trkpt>
      <trkpt lat="43.59488" lon="6.23749">
        <ele>440.2</ele>
        <time>2021-03-05T13:41:56.000Z</time>
      </trkpt>
      <trkpt lat="43.59481" lon="6.23741">
        <ele>438.6</ele>
        <time>2021-03-05T13:42:12.000Z</time>
      </trkpt>
      <trkpt lat="43.59474" lon="6.23735">
        <ele>439.3</ele>
        <time>2021-03-05T13:42:49.000Z</time>
      </trkpt>
      <trkpt lat="43.59464" lon="6.23735">
        <ele>436</ele>
        <time>2021-03-05T13:43:07.000Z</time>
      </trkpt>
      <trkpt lat="43.5946" lon="6.23724">
        <ele>431</ele>
        <time>2021-03-05T13:44:14.000Z</time>
      </trkpt>
      <trkpt lat="43.59451" lon="6.23731">
        <ele>428.3</ele>
        <time>2021-03-05T13:44:50.000Z</time>
      </trkpt>
      <trkpt lat="43.59446" lon="6.23743">
        <ele>428.1</ele>
        <time>2021-03-05T13:45:03.000Z</time>
      </trkpt>
      <trkpt lat="43.59437" lon="6.23749">
        <ele>429</ele>
        <time>2021-03-05T13:45:18.000Z</time>
      </trkpt>
      <trkpt lat="43.59429" lon="6.23745">
        <ele>428.2</ele>
        <time>2021-03-05T13:45:46.000Z</time>
      </trkpt>
      <trkpt lat="43.59426" lon="6.23733">
        <ele>425.8</ele>
        <time>2021-03-05T13:46:13.000Z</time>
      </trkpt>
      <trkpt lat="43.59423" lon="6.23722">
        <ele>424.3</ele>
        <time>2021-03-05T13:46:25.000Z</time>
      </trkpt>
      <trkpt lat="43.59417" lon="6.23712">
        <ele>424.6</ele>
        <time>2021-03-05T13:46:48.000Z</time>
      </trkpt>
      <trkpt lat="43.59418" lon="6.23699">
        <ele>423</ele>
        <time>2021-03-05T13:47:22.000Z</time>
      </trkpt>
      <trkpt lat="43.59414" lon="6.23688">
        <ele>419.7</ele>
        <time>2021-03-05T13:47:53.000Z</time>
      </trkpt>
      <trkpt lat="43.59411" lon="6.23676">
        <ele>417.4</ele>
        <time>2021-03-05T13:48:13.000Z</time>
      </trkpt>
      <trkpt lat="43.5941" lon="6.23663">
        <ele>417.1</ele>
        <time>2021-03-05T13:48:28.000Z</time>
      </trkpt>
      <trkpt lat="43.59418" lon="6.23656">
        <ele>415.3</ele>
        <time>2021-03-05T13:48:46.000Z</time>
      </trkpt>
      <trkpt lat="43.59427" lon="6.23656">
        <ele>412.7</ele>
        <time>2021-03-05T13:49:07.000Z</time>
      </trkpt>
      <trkpt lat="43.59422" lon="6.23645">
        <ele>409.1</ele>
        <time>2021-03-05T13:49:45.000Z</time>
      </trkpt>
      <trkpt lat="43.59413" lon="6.23644">
        <ele>409.3</ele>
        <time>2021-03-05T13:49:57.000Z</time>
      </trkpt>
      <trkpt lat="43.59404" lon="6.23641">
        <ele>409.8</ele>
        <time>2021-03-05T13:50:10.000Z</time>
      </trkpt>
      <trkpt lat="43.59395" lon="6.23637">
        <ele>410.4</ele>
        <time>2021-03-05T13:50:20.000Z</time>
      </trkpt>
      <trkpt lat="43.59387" lon="6.23632">
        <ele>411.1</ele>
        <time>2021-03-05T13:50:35.000Z</time>
      </trkpt>
      <trkpt lat="43.59377" lon="6.2363">
        <ele>411.2</ele>
        <time>2021-03-05T13:50:52.000Z</time>
      </trkpt>
      <trkpt lat="43.59368" lon="6.23633">
        <ele>410.4</ele>
        <time>2021-03-05T13:51:06.000Z</time>
      </trkpt>
      <trkpt lat="43.5936" lon="6.2364">
        <ele>409.8</ele>
        <time>2021-03-05T13:51:23.000Z</time>
      </trkpt>
      <trkpt lat="43.59352" lon="6.23645">
        <ele>409.5</ele>
        <time>2021-03-05T13:51:32.000Z</time>
      </trkpt>
      <trkpt lat="43.59344" lon="6.23652">
        <ele>409.5</ele>
        <time>2021-03-05T13:51:44.000Z</time>
      </trkpt>
      <trkpt lat="43.59336" lon="6.23659">
        <ele>409.4</ele>
        <time>2021-03-05T13:51:59.000Z</time>
      </trkpt>
      <trkpt lat="43.59327" lon="6.23662">
        <ele>409.3</ele>
        <time>2021-03-05T13:52:15.000Z</time>
      </trkpt>
      <trkpt lat="43.59318" lon="6.23662">
        <ele>409.8</ele>
        <time>2021-03-05T13:52:44.000Z</time>
      </trkpt>
      <trkpt lat="43.5931" lon="6.23668">
        <ele>409.3</ele>
        <time>2021-03-05T13:53:03.000Z</time>
      </trkpt>
      <trkpt lat="43.59302" lon="6.23676">
        <ele>408.2</ele>
        <time>2021-03-05T13:53:21.000Z</time>
      </trkpt>
      <trkpt lat="43.59294" lon="6.23683">
        <ele>408</ele>
        <time>2021-03-05T13:53:35.000Z</time>
      </trkpt>
      <trkpt lat="43.59286" lon="6.23691">
        <ele>405.5</ele>
        <time>2021-03-05T13:53:49.000Z</time>
      </trkpt>
      <trkpt lat="43.59277" lon="6.23697">
        <ele>408.8</ele>
        <time>2021-03-05T13:54:04.000Z</time>
      </trkpt>
      <trkpt lat="43.59268" lon="6.23702">
        <ele>408</ele>
        <time>2021-03-05T13:54:13.000Z</time>
      </trkpt>
      <trkpt lat="43.59261" lon="6.23708">
        <ele>408.3</ele>
        <time>2021-03-05T13:54:25.000Z</time>
      </trkpt>
      <trkpt lat="43.59251" lon="6.2371">
        <ele>409.3</ele>
        <time>2021-03-05T13:54:40.000Z</time>
      </trkpt>
      <trkpt lat="43.59242" lon="6.2371">
        <ele>408</ele>
        <time>2021-03-05T13:54:57.000Z</time>
      </trkpt>
      <trkpt lat="43.59233" lon="6.23713">
        <ele>406.3</ele>
        <time>2021-03-05T13:55:12.000Z</time>
      </trkpt>
      <trkpt lat="43.59225" lon="6.23719">
        <ele>405.1</ele>
        <time>2021-03-05T13:55:27.000Z</time>
      </trkpt>
      <trkpt lat="43.59218" lon="6.23727">
        <ele>404.7</ele>
        <time>2021-03-05T13:55:39.000Z</time>
      </trkpt>
      <trkpt lat="43.59209" lon="6.23731">
        <ele>404.1</ele>
        <time>2021-03-05T13:55:52.000Z</time>
      </trkpt>
      <trkpt lat="43.59202" lon="6.2374">
        <ele>403.5</ele>
        <time>2021-03-05T13:56:05.000Z</time>
      </trkpt>
      <trkpt lat="43.59197" lon="6.2375">
        <ele>403.6</ele>
        <time>2021-03-05T13:56:15.000Z</time>
      </trkpt>
      <trkpt lat="43.59194" lon="6.23762">
        <ele>404.4</ele>
        <time>2021-03-05T13:56:27.000Z</time>
      </trkpt>
      <trkpt lat="43.5919" lon="6.23774">
        <ele>405.3</ele>
        <time>2021-03-05T13:56:40.000Z</time>
      </trkpt>
      <trkpt lat="43.59186" lon="6.23785">
        <ele>402.4</ele>
        <time>2021-03-05T13:56:53.000Z</time>
      </trkpt>
      <trkpt lat="43.59182" lon="6.23797">
        <ele>404.5</ele>
        <time>2021-03-05T13:57:04.000Z</time>
      </trkpt>
      <trkpt lat="43.59178" lon="6.23808">
        <ele>406</ele>
        <time>2021-03-05T13:57:17.000Z</time>
      </trkpt>
      <trkpt lat="43.59173" lon="6.23819">
        <ele>405.2</ele>
        <time>2021-03-05T13:57:40.000Z</time>
      </trkpt>
      <trkpt lat="43.59168" lon="6.23829">
        <ele>404.6</ele>
        <time>2021-03-05T13:57:58.000Z</time>
      </trkpt>
      <trkpt lat="43.59163" lon="6.2384">
        <ele>402.5</ele>
        <time>2021-03-05T13:58:20.000Z</time>
      </trkpt>
      <trkpt lat="43.59155" lon="6.23844">
        <ele>399.9</ele>
        <time>2021-03-05T13:58:46.000Z</time>
      </trkpt>
      <trkpt lat="43.59145" lon="6.23847">
        <ele>398.6</ele>
        <time>2021-03-05T13:58:59.000Z</time>
      </trkpt>
      <trkpt lat="43.59138" lon="6.23856">
        <ele>397.2</ele>
        <time>2021-03-05T13:59:32.000Z</time>
      </trkpt>
      <trkpt lat="43.5913" lon="6.23862">
        <ele>395.6</ele>
        <time>2021-03-05T13:59:45.000Z</time>
      </trkpt>
      <trkpt lat="43.59122" lon="6.23868">
        <ele>395</ele>
        <time>2021-03-05T14:00:00.000Z</time>
      </trkpt>
      <trkpt lat="43.59116" lon="6.23879">
        <ele>394.5</ele>
        <time>2021-03-05T14:00:16.000Z</time>
      </trkpt>
      <trkpt lat="43.5911" lon="6.23889">
        <ele>395.1</ele>
        <time>2021-03-05T14:00:38.000Z</time>
      </trkpt>
      <trkpt lat="43.59103" lon="6.23895">
        <ele>395.8</ele>
        <time>2021-03-05T14:01:16.000Z</time>
      </trkpt>
      <trkpt lat="43.59095" lon="6.23901">
        <ele>395.1</ele>
        <time>2021-03-05T14:02:33.000Z</time>
      </trkpt>
      <trkpt lat="43.59086" lon="6.23898">
        <ele>395.6</ele>
        <time>2021-03-05T14:02:54.000Z</time>
      </trkpt>
      <trkpt lat="43.59077" lon="6.239">
        <ele>394.4</ele>
        <time>2021-03-05T14:03:11.000Z</time>
      </trkpt>
      <trkpt lat="43.59067" lon="6.23899">
        <ele>394</ele>
        <time>2021-03-05T14:03:49.000Z</time>
      </trkpt>
      <trkpt lat="43.59059" lon="6.23893">
        <ele>393.6</ele>
        <time>2021-03-05T14:04:01.000Z</time>
      </trkpt>
      <trkpt lat="43.59056" lon="6.23881">
        <ele>392.8</ele>
        <time>2021-03-05T14:04:43.000Z</time>
      </trkpt>
      <trkpt lat="43.59049" lon="6.23873">
        <ele>391.3</ele>
        <time>2021-03-05T14:05:20.000Z</time>
      </trkpt>
      <trkpt lat="43.5904" lon="6.23873">
        <ele>390</ele>
        <time>2021-03-05T14:05:38.000Z</time>
      </trkpt>
      <trkpt lat="43.5903" lon="6.23871">
        <ele>389.3</ele>
        <time>2021-03-05T14:05:50.000Z</time>
      </trkpt>
      <trkpt lat="43.59021" lon="6.23869">
        <ele>389.1</ele>
        <time>2021-03-05T14:06:14.000Z</time>
      </trkpt>
      <trkpt lat="43.59011" lon="6.23869">
        <ele>388.5</ele>
        <time>2021-03-05T14:06:37.000Z</time>
      </trkpt>
      <trkpt lat="43.59002" lon="6.23871">
        <ele>387.7</ele>
        <time>2021-03-05T14:06:45.000Z</time>
      </trkpt>
      <trkpt lat="43.58993" lon="6.23869">
        <ele>386.7</ele>
        <time>2021-03-05T14:06:55.000Z</time>
      </trkpt>
      <trkpt lat="43.58984" lon="6.23867">
        <ele>387.4</ele>
        <time>2021-03-05T14:07:05.000Z</time>
      </trkpt>
      <trkpt lat="43.58975" lon="6.23864">
        <ele>388.6</ele>
        <time>2021-03-05T14:07:25.000Z</time>
      </trkpt>
      <trkpt lat="43.58973" lon="6.23851">
        <ele>389.8</ele>
        <time>2021-03-05T14:08:27.000Z</time>
      </trkpt>
      <trkpt lat="43.58967" lon="6.23842">
        <ele>390.2</ele>
        <time>2021-03-05T14:08:39.000Z</time>
      </trkpt>
      <trkpt lat="43.58961" lon="6.23832">
        <ele>390.5</ele>
        <time>2021-03-05T14:08:53.000Z</time>
      </trkpt>
      <trkpt lat="43.58956" lon="6.23822">
        <ele>391.4</ele>
        <time>2021-03-05T14:09:08.000Z</time>
      </trkpt>
      <trkpt lat="43.58953" lon="6.23809">
        <ele>392.1</ele>
        <time>2021-03-05T14:09:19.000Z</time>
      </trkpt>
      <trkpt lat="43.58953" lon="6.23797">
        <ele>393.1</ele>
        <time>2021-03-05T14:09:32.000Z</time>
      </trkpt>
      <trkpt lat="43.58951" lon="6.23784">
        <ele>393.9</ele>
        <time>2021-03-05T14:09:44.000Z</time>
      </trkpt>
      <trkpt lat="43.58952" lon="6.23771">
        <ele>395</ele>
        <time>2021-03-05T14:09:54.000Z</time>
      </trkpt>
      <trkpt lat="43.58951" lon="6.23757">
        <ele>395.6</ele>
        <time>2021-03-05T14:10:05.000Z</time>
      </trkpt>
      <trkpt lat="43.58949" lon="6.23744">
        <ele>396.3</ele>
        <time>2021-03-05T14:10:14.000Z</time>
      </trkpt>
      <trkpt lat="43.58948" lon="6.23731">
        <ele>396.9</ele>
        <time>2021-03-05T14:10:22.000Z</time>
      </trkpt>
      <trkpt lat="43.58947" lon="6.23718">
        <ele>397.4</ele>
        <time>2021-03-05T14:10:31.000Z</time>
      </trkpt>
      <trkpt lat="43.58943" lon="6.23707">
        <ele>398.7</ele>
        <time>2021-03-05T14:10:48.000Z</time>
      </trkpt>
      <trkpt lat="43.58942" lon="6.23695">
        <ele>399.9</ele>
        <time>2021-03-05T14:11:00.000Z</time>
      </trkpt>
      <trkpt lat="43.58941" lon="6.23681">
        <ele>400.9</ele>
        <time>2021-03-05T14:11:13.000Z</time>
      </trkpt>
      <trkpt lat="43.58939" lon="6.23668">
        <ele>402</ele>
        <time>2021-03-05T14:11:24.000Z</time>
      </trkpt>
      <trkpt lat="43.58935" lon="6.23655">
        <ele>402.3</ele>
        <time>2021-03-05T14:11:36.000Z</time>
      </trkpt>
      <trkpt lat="43.58936" lon="6.23642">
        <ele>401.8</ele>
        <time>2021-03-05T14:11:47.000Z</time>
      </trkpt>
      <trkpt lat="43.58933" lon="6.2363">
        <ele>401.2</ele>
        <time>2021-03-05T14:11:58.000Z</time>
      </trkpt>
      <trkpt lat="43.58938" lon="6.23616">
        <ele>401.4</ele>
        <time>2021-03-05T14:12:13.000Z</time>
      </trkpt>
      <trkpt lat="43.58935" lon="6.23604">
        <ele>400.9</ele>
        <time>2021-03-05T14:12:20.000Z</time>
      </trkpt>
      <trkpt lat="43.58929" lon="6.23593">
        <ele>400.7</ele>
        <time>2021-03-05T14:12:30.000Z</time>
      </trkpt>
      <trkpt lat="43.58924" lon="6.23581">
        <ele>400.5</ele>
        <time>2021-03-05T14:12:41.000Z</time>
      </trkpt>
      <trkpt lat="43.58918" lon="6.23571">
        <ele>399.4</ele>
        <time>2021-03-05T14:12:57.000Z</time>
      </trkpt>
      <trkpt lat="43.58913" lon="6.2356">
        <ele>399.3</ele>
        <time>2021-03-05T14:13:06.000Z</time>
      </trkpt>
      <trkpt lat="43.58906" lon="6.23551">
        <ele>399.6</ele>
        <time>2021-03-05T14:13:15.000Z</time>
      </trkpt>
      <trkpt lat="43.58898" lon="6.23547">
        <ele>400.2</ele>
        <time>2021-03-05T14:13:26.000Z</time>
      </trkpt>
      <trkpt lat="43.58892" lon="6.23538">
        <ele>401.7</ele>
        <time>2021-03-05T14:13:46.000Z</time>
      </trkpt>
      <trkpt lat="43.58883" lon="6.23533">
        <ele>403.3</ele>
        <time>2021-03-05T14:13:58.000Z</time>
      </trkpt>
      <trkpt lat="43.58875" lon="6.23527">
        <ele>404.9</ele>
        <time>2021-03-05T14:14:14.000Z</time>
      </trkpt>
      <trkpt lat="43.58873" lon="6.23514">
        <ele>404</ele>
        <time>2021-03-05T14:14:48.000Z</time>
      </trkpt>
      <trkpt lat="43.58864" lon="6.23514">
        <ele>407.1</ele>
        <time>2021-03-05T14:15:23.000Z</time>
      </trkpt>
      <trkpt lat="43.58855" lon="6.2351">
        <ele>408.7</ele>
        <time>2021-03-05T14:15:41.000Z</time>
      </trkpt>
      <trkpt lat="43.58846" lon="6.23513">
        <ele>408.9</ele>
        <time>2021-03-05T14:16:40.000Z</time>
      </trkpt>
      <trkpt lat="43.58837" lon="6.23514">
        <ele>408.6</ele>
        <time>2021-03-05T14:17:14.000Z</time>
      </trkpt>
      <trkpt lat="43.58828" lon="6.23515">
        <ele>407.7</ele>
        <time>2021-03-05T14:17:54.000Z</time>
      </trkpt>
      <trkpt lat="43.58819" lon="6.2352">
        <ele>409.3</ele>
        <time>2021-03-05T14:18:06.000Z</time>
      </trkpt>
      <trkpt lat="43.5881" lon="6.23519">
        <ele>409.9</ele>
        <time>2021-03-05T14:18:21.000Z</time>
      </trkpt>
      <trkpt lat="43.58801" lon="6.23519">
        <ele>408.8</ele>
        <time>2021-03-05T14:18:41.000Z</time>
      </trkpt>
      <trkpt lat="43.58792" lon="6.23523">
        <ele>404.2</ele>
        <time>2021-03-05T14:19:07.000Z</time>
      </trkpt>
      <trkpt lat="43.58784" lon="6.23517">
        <ele>404.6</ele>
        <time>2021-03-05T14:19:32.000Z</time>
      </trkpt>
      <trkpt lat="43.58773" lon="6.23522">
        <ele>404.3</ele>
        <time>2021-03-05T14:19:44.000Z</time>
      </trkpt>
      <trkpt lat="43.58764" lon="6.23525">
        <ele>404.3</ele>
        <time>2021-03-05T14:20:09.000Z</time>
      </trkpt>
      <trkpt lat="43.58767" lon="6.23512">
        <ele>401.8</ele>
        <time>2021-03-05T14:21:08.000Z</time>
      </trkpt>
      <trkpt lat="43.58773" lon="6.23502">
        <ele>400</ele>
        <time>2021-03-05T14:21:48.000Z</time>
      </trkpt>
      <trkpt lat="43.58776" lon="6.23491">
        <ele>398.3</ele>
        <time>2021-03-05T14:22:32.000Z</time>
      </trkpt>
      <trkpt lat="43.58774" lon="6.23478">
        <ele>396.4</ele>
        <time>2021-03-05T14:23:11.000Z</time>
      </trkpt>
      <trkpt lat="43.58768" lon="6.23468">
        <ele>393.6</ele>
        <time>2021-03-05T14:24:04.000Z</time>
      </trkpt>
      <trkpt lat="43.58766" lon="6.23455">
        <ele>392.9</ele>
        <time>2021-03-05T14:24:34.000Z</time>
      </trkpt>
      <trkpt lat="43.5877" lon="6.23443">
        <ele>392.7</ele>
        <time>2021-03-05T14:24:56.000Z</time>
      </trkpt>
      <trkpt lat="43.58768" lon="6.23456">
        <ele>392.5</ele>
        <time>2021-03-05T14:25:23.000Z</time>
      </trkpt>
      <trkpt lat="43.58767" lon="6.23469">
        <ele>392.5</ele>
        <time>2021-03-05T14:26:47.000Z</time>
      </trkpt>
      <trkpt lat="43.5877" lon="6.23457">
        <ele>386.8</ele>
        <time>2021-03-05T14:29:24.000Z</time>
      </trkpt>
      <trkpt lat="43.5877" lon="6.23444">
        <ele>386.5</ele>
        <time>2021-03-05T14:30:19.000Z</time>
      </trkpt>
      <trkpt lat="43.58768" lon="6.23457">
        <ele>388.5</ele>
        <time>2021-03-05T14:32:09.000Z</time>
      </trkpt>
      <trkpt lat="43.58766" lon="6.2347">
        <ele>389.1</ele>
        <time>2021-03-05T14:32:29.000Z</time>
      </trkpt>
      <trkpt lat="43.58771" lon="6.2348">
        <ele>390.4</ele>
        <time>2021-03-05T14:33:17.000Z</time>
      </trkpt>
      <trkpt lat="43.58776" lon="6.23468">
        <ele>389.4</ele>
        <time>2021-03-05T14:35:44.000Z</time>
      </trkpt>
      <trkpt lat="43.58778" lon="6.23481">
        <ele>389.9</ele>
        <time>2021-03-05T14:36:57.000Z</time>
      </trkpt>
      <trkpt lat="43.58769" lon="6.2348">
        <ele>390.7</ele>
        <time>2021-03-05T14:37:23.000Z</time>
      </trkpt>
      <trkpt lat="43.58761" lon="6.23484">
        <ele>391.6</ele>
        <time>2021-03-05T14:37:35.000Z</time>
      </trkpt>
      <trkpt lat="43.58758" lon="6.23496">
        <ele>391.3</ele>
        <time>2021-03-05T14:37:48.000Z</time>
      </trkpt>
      <trkpt lat="43.58757" lon="6.23508">
        <ele>395.8</ele>
        <time>2021-03-05T14:38:31.000Z</time>
      </trkpt>
      <trkpt lat="43.58748" lon="6.23512">
        <ele>399</ele>
        <time>2021-03-05T14:38:59.000Z</time>
      </trkpt>
      <trkpt lat="43.58739" lon="6.23518">
        <ele>399.9</ele>
        <time>2021-03-05T14:39:09.000Z</time>
      </trkpt>
      <trkpt lat="43.58744" lon="6.23529">
        <ele>401.5</ele>
        <time>2021-03-05T14:39:26.000Z</time>
      </trkpt>
      <trkpt lat="43.58751" lon="6.23537">
        <ele>403.9</ele>
        <time>2021-03-05T14:39:53.000Z</time>
      </trkpt>
      <trkpt lat="43.58742" lon="6.2354">
        <ele>404.6</ele>
        <time>2021-03-05T14:41:15.000Z</time>
      </trkpt>
      <trkpt lat="43.58751" lon="6.23538">
        <ele>403.1</ele>
        <time>2021-03-05T14:41:52.000Z</time>
      </trkpt>
      <trkpt lat="43.58742" lon="6.23534">
        <ele>404.1</ele>
        <time>2021-03-05T14:42:05.000Z</time>
      </trkpt>
      <trkpt lat="43.58736" lon="6.23525">
        <ele>404.3</ele>
        <time>2021-03-05T14:42:26.000Z</time>
      </trkpt>
      <trkpt lat="43.58729" lon="6.23533">
        <ele>403.3</ele>
        <time>2021-03-05T14:43:21.000Z</time>
      </trkpt>
      <trkpt lat="43.58732" lon="6.23545">
        <ele>403.8</ele>
        <time>2021-03-05T14:43:33.000Z</time>
      </trkpt>
      <trkpt lat="43.58728" lon="6.23557">
        <ele>405</ele>
        <time>2021-03-05T14:43:44.000Z</time>
      </trkpt>
      <trkpt lat="43.58726" lon="6.23569">
        <ele>407.5</ele>
        <time>2021-03-05T14:43:58.000Z</time>
      </trkpt>
      <trkpt lat="43.58725" lon="6.23582">
        <ele>408.8</ele>
        <time>2021-03-05T14:44:08.000Z</time>
      </trkpt>
      <trkpt lat="43.58722" lon="6.23595">
        <ele>410.2</ele>
        <time>2021-03-05T14:44:20.000Z</time>
      </trkpt>
      <trkpt lat="43.58723" lon="6.23607">
        <ele>412.4</ele>
        <time>2021-03-05T14:44:34.000Z</time>
      </trkpt>
      <trkpt lat="43.58723" lon="6.2362">
        <ele>415.5</ele>
        <time>2021-03-05T14:44:52.000Z</time>
      </trkpt>
      <trkpt lat="43.58723" lon="6.23633">
        <ele>418.2</ele>
        <time>2021-03-05T14:45:14.000Z</time>
      </trkpt>
      <trkpt lat="43.58726" lon="6.23645">
        <ele>420.1</ele>
        <time>2021-03-05T14:45:52.000Z</time>
      </trkpt>
      <trkpt lat="43.58731" lon="6.23656">
        <ele>422.7</ele>
        <time>2021-03-05T14:46:07.000Z</time>
      </trkpt>
      <trkpt lat="43.58732" lon="6.23669">
        <ele>424.5</ele>
        <time>2021-03-05T14:46:20.000Z</time>
      </trkpt>
      <trkpt lat="43.58738" lon="6.23681">
        <ele>425.7</ele>
        <time>2021-03-05T14:46:32.000Z</time>
      </trkpt>
      <trkpt lat="43.58741" lon="6.23693">
        <ele>426.4</ele>
        <time>2021-03-05T14:47:12.000Z</time>
      </trkpt>
      <trkpt lat="43.58742" lon="6.23705">
        <ele>429</ele>
        <time>2021-03-05T14:47:37.000Z</time>
      </trkpt>
      <trkpt lat="43.58739" lon="6.23716">
        <ele>429</ele>
        <time>2021-03-05T14:48:12.000Z</time>
      </trkpt>
      <trkpt lat="43.58747" lon="6.23723">
        <ele>427.3</ele>
        <time>2021-03-05T14:48:34.000Z</time>
      </trkpt>
      <trkpt lat="43.58748" lon="6.23736">
        <ele>429.4</ele>
        <time>2021-03-05T14:48:57.000Z</time>
      </trkpt>
      <trkpt lat="43.58744" lon="6.23748">
        <ele>430.8</ele>
        <time>2021-03-05T14:49:15.000Z</time>
      </trkpt>
      <trkpt lat="43.58735" lon="6.23751">
        <ele>430.9</ele>
        <time>2021-03-05T14:49:44.000Z</time>
      </trkpt>
      <trkpt lat="43.58741" lon="6.23763">
        <ele>429.6</ele>
        <time>2021-03-05T14:50:19.000Z</time>
      </trkpt>
      <trkpt lat="43.58744" lon="6.23775">
        <ele>430.3</ele>
        <time>2021-03-05T14:50:30.000Z</time>
      </trkpt>
      <trkpt lat="43.5874" lon="6.23788">
        <ele>430</ele>
        <time>2021-03-05T14:50:40.000Z</time>
      </trkpt>
      <trkpt lat="43.58738" lon="6.238">
        <ele>431.5</ele>
        <time>2021-03-05T14:50:51.000Z</time>
      </trkpt>
      <trkpt lat="43.58739" lon="6.23813">
        <ele>432.6</ele>
        <time>2021-03-05T14:51:03.000Z</time>
      </trkpt>
      <trkpt lat="43.58736" lon="6.23825">
        <ele>433.3</ele>
        <time>2021-03-05T14:51:15.000Z</time>
      </trkpt>
      <trkpt lat="43.58738" lon="6.23837">
        <ele>433.8</ele>
        <time>2021-03-05T14:51:27.000Z</time>
      </trkpt>
      <trkpt lat="43.5874" lon="6.2385">
        <ele>434.1</ele>
        <time>2021-03-05T14:51:36.000Z</time>
      </trkpt>
      <trkpt lat="43.58736" lon="6.23862">
        <ele>434.6</ele>
        <time>2021-03-05T14:51:45.000Z</time>
      </trkpt>
      <trkpt lat="43.58734" lon="6.23875">
        <ele>435.4</ele>
        <time>2021-03-05T14:52:00.000Z</time>
      </trkpt>
      <trkpt lat="43.58728" lon="6.23885">
        <ele>435.7</ele>
        <time>2021-03-05T14:52:08.000Z</time>
      </trkpt>
      <trkpt lat="43.58734" lon="6.23895">
        <ele>436.2</ele>
        <time>2021-03-05T14:52:21.000Z</time>
      </trkpt>
      <trkpt lat="43.58737" lon="6.23907">
        <ele>437.3</ele>
        <time>2021-03-05T14:52:31.000Z</time>
      </trkpt>
      <trkpt lat="43.58741" lon="6.23918">
        <ele>439</ele>
        <time>2021-03-05T14:52:39.000Z</time>
      </trkpt>
      <trkpt lat="43.58747" lon="6.23929">
        <ele>437.5</ele>
        <time>2021-03-05T14:52:49.000Z</time>
      </trkpt>
      <trkpt lat="43.58755" lon="6.23936">
        <ele>437.2</ele>
        <time>2021-03-05T14:53:05.000Z</time>
      </trkpt>
      <trkpt lat="43.58761" lon="6.23946">
        <ele>437.2</ele>
        <time>2021-03-05T14:53:17.000Z</time>
      </trkpt>
      <trkpt lat="43.58763" lon="6.2396">
        <ele>435.5</ele>
        <time>2021-03-05T14:53:28.000Z</time>
      </trkpt>
      <trkpt lat="43.58765" lon="6.23972">
        <ele>435.4</ele>
        <time>2021-03-05T14:53:38.000Z</time>
      </trkpt>
      <trkpt lat="43.58772" lon="6.23982">
        <ele>435.1</ele>
        <time>2021-03-05T14:53:48.000Z</time>
      </trkpt>
      <trkpt lat="43.58779" lon="6.23991">
        <ele>434.1</ele>
        <time>2021-03-05T14:54:00.000Z</time>
      </trkpt>
      <trkpt lat="43.58785" lon="6.24">
        <ele>433.6</ele>
        <time>2021-03-05T14:54:10.000Z</time>
      </trkpt>
      <trkpt lat="43.58789" lon="6.24012">
        <ele>433</ele>
        <time>2021-03-05T14:54:24.000Z</time>
      </trkpt>
      <trkpt lat="43.58791" lon="6.24024">
        <ele>432</ele>
        <time>2021-03-05T14:54:34.000Z</time>
      </trkpt>
      <trkpt lat="43.58789" lon="6.24037">
        <ele>432.5</ele>
        <time>2021-03-05T14:54:44.000Z</time>
      </trkpt>
      <trkpt lat="43.58789" lon="6.24049">
        <ele>432.4</ele>
        <time>2021-03-05T14:54:53.000Z</time>
      </trkpt>
      <trkpt lat="43.58789" lon="6.24062">
        <ele>432.9</ele>
        <time>2021-03-05T14:55:02.000Z</time>
      </trkpt>
      <trkpt lat="43.58789" lon="6.24075">
        <ele>433.2</ele>
        <time>2021-03-05T14:55:11.000Z</time>
      </trkpt>
      <trkpt lat="43.58789" lon="6.24088">
        <ele>433.4</ele>
        <time>2021-03-05T14:55:20.000Z</time>
      </trkpt>
      <trkpt lat="43.58789" lon="6.24102">
        <ele>433.6</ele>
        <time>2021-03-05T14:55:30.000Z</time>
      </trkpt>
      <trkpt lat="43.58783" lon="6.24112">
        <ele>434</ele>
        <time>2021-03-05T14:55:39.000Z</time>
      </trkpt>
      <trkpt lat="43.58778" lon="6.24123">
        <ele>434.7</ele>
        <time>2021-03-05T14:55:50.000Z</time>
      </trkpt>
      <trkpt lat="43.58769" lon="6.24129">
        <ele>435.4</ele>
        <time>2021-03-05T14:56:03.000Z</time>
      </trkpt>
      <trkpt lat="43.58769" lon="6.24141">
        <ele>433.9</ele>
        <time>2021-03-05T14:56:15.000Z</time>
      </trkpt>
      <trkpt lat="43.58762" lon="6.24151">
        <ele>433.3</ele>
        <time>2021-03-05T14:56:24.000Z</time>
      </trkpt>
      <trkpt lat="43.58756" lon="6.24163">
        <ele>433.1</ele>
        <time>2021-03-05T14:56:33.000Z</time>
      </trkpt>
      <trkpt lat="43.58752" lon="6.24175">
        <ele>432.9</ele>
        <time>2021-03-05T14:56:43.000Z</time>
      </trkpt>
      <trkpt lat="43.58749" lon="6.24187">
        <ele>432.4</ele>
        <time>2021-03-05T14:56:53.000Z</time>
      </trkpt>
      <trkpt lat="43.58745" lon="6.24198">
        <ele>431.9</ele>
        <time>2021-03-05T14:57:04.000Z</time>
      </trkpt>
      <trkpt lat="43.5874" lon="6.24211">
        <ele>431.2</ele>
        <time>2021-03-05T14:57:13.000Z</time>
      </trkpt>
      <trkpt lat="43.58736" lon="6.24224">
        <ele>431.3</ele>
        <time>2021-03-05T14:57:21.000Z</time>
      </trkpt>
      <trkpt lat="43.5873" lon="6.24233">
        <ele>431.2</ele>
        <time>2021-03-05T14:57:29.000Z</time>
      </trkpt>
      <trkpt lat="43.58721" lon="6.24239">
        <ele>431.2</ele>
        <time>2021-03-05T14:57:35.000Z</time>
      </trkpt>
      <trkpt lat="43.58712" lon="6.24243">
        <ele>431.2</ele>
        <time>2021-03-05T14:57:46.000Z</time>
      </trkpt>
      <trkpt lat="43.58704" lon="6.24236">
        <ele>432.3</ele>
        <time>2021-03-05T14:58:14.000Z</time>
      </trkpt>
      <trkpt lat="43.58695" lon="6.24229">
        <ele>432.7</ele>
        <time>2021-03-05T14:58:25.000Z</time>
      </trkpt>
      <trkpt lat="43.58687" lon="6.24222">
        <ele>433.5</ele>
        <time>2021-03-05T14:58:35.000Z</time>
      </trkpt>
      <trkpt lat="43.58679" lon="6.24214">
        <ele>434.7</ele>
        <time>2021-03-05T14:58:45.000Z</time>
      </trkpt>
      <trkpt lat="43.58673" lon="6.24205">
        <ele>435.3</ele>
        <time>2021-03-05T14:58:53.000Z</time>
      </trkpt>
      <trkpt lat="43.58671" lon="6.24192">
        <ele>436.3</ele>
        <time>2021-03-05T14:59:04.000Z</time>
      </trkpt>
      <trkpt lat="43.5867" lon="6.24179">
        <ele>437.5</ele>
        <time>2021-03-05T14:59:16.000Z</time>
      </trkpt>
      <trkpt lat="43.58669" lon="6.24166">
        <ele>438.6</ele>
        <time>2021-03-05T14:59:26.000Z</time>
      </trkpt>
      <trkpt lat="43.58666" lon="6.24153">
        <ele>440.2</ele>
        <time>2021-03-05T14:59:39.000Z</time>
      </trkpt>
      <trkpt lat="43.58662" lon="6.24142">
        <ele>441.3</ele>
        <time>2021-03-05T14:59:50.000Z</time>
      </trkpt>
      <trkpt lat="43.58656" lon="6.24131">
        <ele>442.1</ele>
        <time>2021-03-05T15:00:01.000Z</time>
      </trkpt>
      <trkpt lat="43.58651" lon="6.24121">
        <ele>441.1</ele>
        <time>2021-03-05T15:00:19.000Z</time>
      </trkpt>
      <trkpt lat="43.58645" lon="6.2411">
        <ele>443.6</ele>
        <time>2021-03-05T15:00:52.000Z</time>
      </trkpt>
      <trkpt lat="43.58638" lon="6.24102">
        <ele>444.4</ele>
        <time>2021-03-05T15:01:02.000Z</time>
      </trkpt>
      <trkpt lat="43.5863" lon="6.24094">
        <ele>445.1</ele>
        <time>2021-03-05T15:01:13.000Z</time>
      </trkpt>
      <trkpt lat="43.58622" lon="6.24089">
        <ele>446</ele>
        <time>2021-03-05T15:01:23.000Z</time>
      </trkpt>
      <trkpt lat="43.58614" lon="6.24083">
        <ele>446.4</ele>
        <time>2021-03-05T15:01:31.000Z</time>
      </trkpt>
      <trkpt lat="43.58605" lon="6.24076">
        <ele>447.7</ele>
        <time>2021-03-05T15:01:41.000Z</time>
      </trkpt>
      <trkpt lat="43.58598" lon="6.24067">
        <ele>448.7</ele>
        <time>2021-03-05T15:01:51.000Z</time>
      </trkpt>
      <trkpt lat="43.58592" lon="6.24058">
        <ele>449.5</ele>
        <time>2021-03-05T15:02:02.000Z</time>
      </trkpt>
      <trkpt lat="43.58586" lon="6.24047">
        <ele>449.8</ele>
        <time>2021-03-05T15:02:12.000Z</time>
      </trkpt>
      <trkpt lat="43.58581" lon="6.24036">
        <ele>451.5</ele>
        <time>2021-03-05T15:02:24.000Z</time>
      </trkpt>
      <trkpt lat="43.58575" lon="6.24027">
        <ele>449.3</ele>
        <time>2021-03-05T15:02:46.000Z</time>
      </trkpt>
      <trkpt lat="43.5857" lon="6.24015">
        <ele>449.3</ele>
        <time>2021-03-05T15:02:56.000Z</time>
      </trkpt>
      <trkpt lat="43.58567" lon="6.24003">
        <ele>449.9</ele>
        <time>2021-03-05T15:03:32.000Z</time>
      </trkpt>
      <trkpt lat="43.58563" lon="6.23991">
        <ele>449.7</ele>
        <time>2021-03-05T15:03:41.000Z</time>
      </trkpt>
      <trkpt lat="43.5856" lon="6.23979">
        <ele>449.7</ele>
        <time>2021-03-05T15:03:50.000Z</time>
      </trkpt>
      <trkpt lat="43.58555" lon="6.23968">
        <ele>450</ele>
        <time>2021-03-05T15:03:59.000Z</time>
      </trkpt>
      <trkpt lat="43.5855" lon="6.23956">
        <ele>449.8</ele>
        <time>2021-03-05T15:04:08.000Z</time>
      </trkpt>
      <trkpt lat="43.58545" lon="6.23945">
        <ele>450.5</ele>
        <time>2021-03-05T15:04:19.000Z</time>
      </trkpt>
      <trkpt lat="43.58538" lon="6.23936">
        <ele>451.6</ele>
        <time>2021-03-05T15:04:30.000Z</time>
      </trkpt>
      <trkpt lat="43.58532" lon="6.23926">
        <ele>451.6</ele>
        <time>2021-03-05T15:04:38.000Z</time>
      </trkpt>
      <trkpt lat="43.58525" lon="6.23916">
        <ele>452.4</ele>
        <time>2021-03-05T15:04:47.000Z</time>
      </trkpt>
      <trkpt lat="43.5852" lon="6.23905">
        <ele>452.5</ele>
        <time>2021-03-05T15:04:56.000Z</time>
      </trkpt>
      <trkpt lat="43.58515" lon="6.23894">
        <ele>452.4</ele>
        <time>2021-03-05T15:05:07.000Z</time>
      </trkpt>
      <trkpt lat="43.5851" lon="6.23882">
        <ele>452.7</ele>
        <time>2021-03-05T15:05:16.000Z</time>
      </trkpt>
      <trkpt lat="43.58504" lon="6.23873">
        <ele>452.7</ele>
        <time>2021-03-05T15:05:26.000Z</time>
      </trkpt>
      <trkpt lat="43.58497" lon="6.23864">
        <ele>452.9</ele>
        <time>2021-03-05T15:05:35.000Z</time>
      </trkpt>
      <trkpt lat="43.58491" lon="6.23855">
        <ele>452.6</ele>
        <time>2021-03-05T15:05:47.000Z</time>
      </trkpt>
      <trkpt lat="43.58482" lon="6.23849">
        <ele>451.8</ele>
        <time>2021-03-05T15:06:04.000Z</time>
      </trkpt>
      <trkpt lat="43.58473" lon="6.23844">
        <ele>452.2</ele>
        <time>2021-03-05T15:06:14.000Z</time>
      </trkpt>
      <trkpt lat="43.58464" lon="6.2384">
        <ele>451.4</ele>
        <time>2021-03-05T15:06:24.000Z</time>
      </trkpt>
      <trkpt lat="43.58455" lon="6.23833">
        <ele>451.1</ele>
        <time>2021-03-05T15:06:35.000Z</time>
      </trkpt>
      <trkpt lat="43.58448" lon="6.23824">
        <ele>450.9</ele>
        <time>2021-03-05T15:06:46.000Z</time>
      </trkpt>
      <trkpt lat="43.58443" lon="6.23814">
        <ele>450.5</ele>
        <time>2021-03-05T15:06:57.000Z</time>
      </trkpt>
      <trkpt lat="43.58439" lon="6.23802">
        <ele>450.2</ele>
        <time>2021-03-05T15:07:06.000Z</time>
      </trkpt>
      <trkpt lat="43.58432" lon="6.23793">
        <ele>449.6</ele>
        <time>2021-03-05T15:07:15.000Z</time>
      </trkpt>
      <trkpt lat="43.58426" lon="6.23782">
        <ele>449.2</ele>
        <time>2021-03-05T15:07:25.000Z</time>
      </trkpt>
      <trkpt lat="43.58418" lon="6.23775">
        <ele>448.8</ele>
        <time>2021-03-05T15:07:36.000Z</time>
      </trkpt>
      <trkpt lat="43.58411" lon="6.23765">
        <ele>447.6</ele>
        <time>2021-03-05T15:07:48.000Z</time>
      </trkpt>
      <trkpt lat="43.58404" lon="6.23756">
        <ele>447.1</ele>
        <time>2021-03-05T15:07:59.000Z</time>
      </trkpt>
      <trkpt lat="43.58397" lon="6.23748">
        <ele>446.3</ele>
        <time>2021-03-05T15:08:08.000Z</time>
      </trkpt>
      <trkpt lat="43.58391" lon="6.23737">
        <ele>445.6</ele>
        <time>2021-03-05T15:08:17.000Z</time>
      </trkpt>
      <trkpt lat="43.58388" lon="6.23726">
        <ele>445.3</ele>
        <time>2021-03-05T15:08:27.000Z</time>
      </trkpt>
      <trkpt lat="43.5838" lon="6.23717">
        <ele>444.8</ele>
        <time>2021-03-05T15:08:37.000Z</time>
      </trkpt>
      <trkpt lat="43.58373" lon="6.23709">
        <ele>444.1</ele>
        <time>2021-03-05T15:08:46.000Z</time>
      </trkpt>
      <trkpt lat="43.58369" lon="6.23698">
        <ele>442.8</ele>
        <time>2021-03-05T15:08:58.000Z</time>
      </trkpt>
      <trkpt lat="43.58366" lon="6.23685">
        <ele>442</ele>
        <time>2021-03-05T15:09:11.000Z</time>
      </trkpt>
      <trkpt lat="43.58361" lon="6.23674">
        <ele>441.2</ele>
        <time>2021-03-05T15:09:19.000Z</time>
      </trkpt>
      <trkpt lat="43.58356" lon="6.23663">
        <ele>440.1</ele>
        <time>2021-03-05T15:09:33.000Z</time>
      </trkpt>
      <trkpt lat="43.58351" lon="6.23652">
        <ele>438.8</ele>
        <time>2021-03-05T15:09:46.000Z</time>
      </trkpt>
      <trkpt lat="43.58348" lon="6.23639">
        <ele>437.8</ele>
        <time>2021-03-05T15:09:59.000Z</time>
      </trkpt>
      <trkpt lat="43.58344" lon="6.23627">
        <ele>437.7</ele>
        <time>2021-03-05T15:10:08.000Z</time>
      </trkpt>
      <trkpt lat="43.58339" lon="6.23616">
        <ele>437.5</ele>
        <time>2021-03-05T15:10:17.000Z</time>
      </trkpt>
      <trkpt lat="43.58335" lon="6.23604">
        <ele>437.2</ele>
        <time>2021-03-05T15:10:26.000Z</time>
      </trkpt>
      <trkpt lat="43.58329" lon="6.23593">
        <ele>437</ele>
        <time>2021-03-05T15:10:35.000Z</time>
      </trkpt>
      <trkpt lat="43.58324" lon="6.23582">
        <ele>436.9</ele>
        <time>2021-03-05T15:10:43.000Z</time>
      </trkpt>
      <trkpt lat="43.5832" lon="6.2357">
        <ele>436.1</ele>
        <time>2021-03-05T15:10:52.000Z</time>
      </trkpt>
      <trkpt lat="43.58316" lon="6.23559">
        <ele>435.7</ele>
        <time>2021-03-05T15:11:03.000Z</time>
      </trkpt>
      <trkpt lat="43.58311" lon="6.23547">
        <ele>435.3</ele>
        <time>2021-03-05T15:11:11.000Z</time>
      </trkpt>
      <trkpt lat="43.5831" lon="6.23534">
        <ele>434.8</ele>
        <time>2021-03-05T15:11:21.000Z</time>
      </trkpt>
      <trkpt lat="43.58308" lon="6.23521">
        <ele>434.4</ele>
        <time>2021-03-05T15:11:29.000Z</time>
      </trkpt>
      <trkpt lat="43.58307" lon="6.23508">
        <ele>433.9</ele>
        <time>2021-03-05T15:11:38.000Z</time>
      </trkpt>
      <trkpt lat="43.58306" lon="6.23495">
        <ele>432.5</ele>
        <time>2021-03-05T15:11:48.000Z</time>
      </trkpt>
      <trkpt lat="43.58301" lon="6.23484">
        <ele>432.2</ele>
        <time>2021-03-05T15:12:02.000Z</time>
      </trkpt>
      <trkpt lat="43.58293" lon="6.23477">
        <ele>430.8</ele>
        <time>2021-03-05T15:12:17.000Z</time>
      </trkpt>
      <trkpt lat="43.58285" lon="6.23472">
        <ele>430.2</ele>
        <time>2021-03-05T15:12:33.000Z</time>
      </trkpt>
      <trkpt lat="43.58277" lon="6.23465">
        <ele>428.1</ele>
        <time>2021-03-05T15:12:50.000Z</time>
      </trkpt>
      <trkpt lat="43.58271" lon="6.23474">
        <ele>425.2</ele>
        <time>2021-03-05T15:13:37.000Z</time>
      </trkpt>
      <trkpt lat="43.58262" lon="6.23478">
        <ele>422.6</ele>
        <time>2021-03-05T15:14:15.000Z</time>
      </trkpt>
      <trkpt lat="43.58253" lon="6.2348">
        <ele>420.6</ele>
        <time>2021-03-05T15:14:47.000Z</time>
      </trkpt>
      <trkpt lat="43.58245" lon="6.23472">
        <ele>416.9</ele>
        <time>2021-03-05T15:15:33.000Z</time>
      </trkpt>
      <trkpt lat="43.58236" lon="6.2347">
        <ele>411.9</ele>
        <time>2021-03-05T15:16:24.000Z</time>
      </trkpt>
      <trkpt lat="43.58228" lon="6.23466">
        <ele>408.3</ele>
        <time>2021-03-05T15:17:07.000Z</time>
      </trkpt>
      <trkpt lat="43.5822" lon="6.23458">
        <ele>405.9</ele>
        <time>2021-03-05T15:17:34.000Z</time>
      </trkpt>
      <trkpt lat="43.58217" lon="6.23446">
        <ele>403.3</ele>
        <time>2021-03-05T15:18:13.000Z</time>
      </trkpt>
      <trkpt lat="43.5822" lon="6.23435">
        <ele>399.4</ele>
        <time>2021-03-05T15:18:59.000Z</time>
      </trkpt>
      <trkpt lat="43.58213" lon="6.23426">
        <ele>395.3</ele>
        <time>2021-03-05T15:19:42.000Z</time>
      </trkpt>
      <trkpt lat="43.58204" lon="6.2343">
        <ele>392.5</ele>
        <time>2021-03-05T15:20:16.000Z</time>
      </trkpt>
      <trkpt lat="43.58198" lon="6.23422">
        <ele>388.9</ele>
        <time>2021-03-05T15:21:07.000Z</time>
      </trkpt>
      <trkpt lat="43.58194" lon="6.23433">
        <ele>384.1</ele>
        <time>2021-03-05T15:22:21.000Z</time>
      </trkpt>
      <trkpt lat="43.58185" lon="6.23438">
        <ele>382.2</ele>
        <time>2021-03-05T15:22:43.000Z</time>
      </trkpt>
      <trkpt lat="43.58176" lon="6.23429">
        <ele>380.5</ele>
        <time>2021-03-05T15:23:03.000Z</time>
      </trkpt>
      <trkpt lat="43.5818" lon="6.23417">
        <ele>378.3</ele>
        <time>2021-03-05T15:23:25.000Z</time>
      </trkpt>
      <trkpt lat="43.58175" lon="6.23406">
        <ele>372.9</ele>
        <time>2021-03-05T15:24:34.000Z</time>
      </trkpt>
      <trkpt lat="43.58166" lon="6.23403">
        <ele>371.4</ele>
        <time>2021-03-05T15:24:59.000Z</time>
      </trkpt>
      <trkpt lat="43.58164" lon="6.2339">
        <ele>369.6</ele>
        <time>2021-03-05T15:25:12.000Z</time>
      </trkpt>
      <trkpt lat="43.5816" lon="6.23379">
        <ele>368.4</ele>
        <time>2021-03-05T15:25:36.000Z</time>
      </trkpt>
      <trkpt lat="43.58151" lon="6.23377">
        <ele>365.9</ele>
        <time>2021-03-05T15:26:36.000Z</time>
      </trkpt>
      <trkpt lat="43.58142" lon="6.23373">
        <ele>364.3</ele>
        <time>2021-03-05T15:26:50.000Z</time>
      </trkpt>
      <trkpt lat="43.58133" lon="6.23372">
        <ele>361.9</ele>
        <time>2021-03-05T15:27:07.000Z</time>
      </trkpt>
      <trkpt lat="43.58131" lon="6.23384">
        <ele>359.6</ele>
        <time>2021-03-05T15:27:22.000Z</time>
      </trkpt>
      <trkpt lat="43.58123" lon="6.23391">
        <ele>358.6</ele>
        <time>2021-03-05T15:27:29.000Z</time>
      </trkpt>
      <trkpt lat="43.58114" lon="6.23393">
        <ele>357.5</ele>
        <time>2021-03-05T15:27:38.000Z</time>
      </trkpt>
      <trkpt lat="43.58107" lon="6.23402">
        <ele>355.5</ele>
        <time>2021-03-05T15:27:54.000Z</time>
      </trkpt>
      <trkpt lat="43.58098" lon="6.23404">
        <ele>354.1</ele>
        <time>2021-03-05T15:28:06.000Z</time>
      </trkpt>
    </trkseg>
  </trk>
</gpx>